WAT5233 KDFW-ZSPD
Flight info
| Callsign | WAT5233 |
|---|---|
| Flight time | N/A |
| Altitude | 30000 |
| Route | HRPER3 HULZE DCT TCC DCT RSK DCT HASSL Q130 ROCCY/N0490F320 DCT KATTS DCT MVA DCT WEBGO DCT RBL DCT FOT DCT LATNE DCT 43N130W 48N140W 52N150W/N0482F340 54N160W 54N170W 54N180E/N0489F360 DCT NIKLL R220 NOGAL/N0480F370 R220 NUBDA/N0477F380 R220 NODAN R217 GTC Y142 SAMON Y14 DGC Y28 ISAKY Y592 ONIKU A593 LAMEN/K0896F380 A593 DUMET DUM92A |
| Aircraft | A346/H-SDE2E3FGHIJ3J4J5M1RWXY/LB1D1 |
Departure
| Time | 2026-05-07 05:50 |
|---|---|
| Airport | Dallas Fort Worth International Airport (KDFW) |
Arrival
| Time | N/A |
|---|---|
| Airport | Shanghai Pudong International Airport (ZSPD) |
| Time | Latitude | Longitude | Altitude | Speed | Heading |
|---|---|---|---|---|---|
| 2026-05-07 04:50 | 32.89764 | -97.04599 | 619 ft | 0 kts | 89° |
| 2026-05-07 05:39 | 32.89764 | -97.04621 | 613 ft | 0 kts | 89° |
| 2026-05-07 05:40 | 32.89763 | -97.04652 | 621 ft | 0 kts | 89° |
| 2026-05-07 05:40 | 32.89764 | -97.04683 | 621 ft | 0 kts | 95° |
| 2026-05-07 05:40 | 32.89771 | -97.04701 | 618 ft | 0 kts | 135° |
| 2026-05-07 05:40 | 32.89787 | -97.04710 | 623 ft | 0 kts | 174° |
| 2026-05-07 05:41 | 32.89799 | -97.04710 | 619 ft | 0 kts | 185° |
| 2026-05-07 05:41 | 32.89794 | -97.04711 | 619 ft | 1 kts | 185° |
| 2026-05-07 05:42 | 32.89778 | -97.04713 | 623 ft | 3 kts | 185° |
| 2026-05-07 05:42 | 32.89748 | -97.04716 | 616 ft | 5 kts | 185° |
| 2026-05-07 05:42 | 32.89707 | -97.04722 | 614 ft | 8 kts | 192° |
| 2026-05-07 05:42 | 32.89647 | -97.04738 | 614 ft | 9 kts | 192° |
| 2026-05-07 05:43 | 32.89584 | -97.04755 | 615 ft | 9 kts | 192° |
| 2026-05-07 05:43 | 32.89518 | -97.04766 | 614 ft | 10 kts | 185° |
| 2026-05-07 05:43 | 32.89447 | -97.04769 | 615 ft | 11 kts | 180° |
| 2026-05-07 05:43 | 32.89371 | -97.04769 | 616 ft | 11 kts | 180° |
| 2026-05-07 05:44 | 32.89292 | -97.04768 | 614 ft | 12 kts | 180° |
| 2026-05-07 05:44 | 32.89209 | -97.04768 | 614 ft | 12 kts | 180° |
| 2026-05-07 05:44 | 32.89122 | -97.04768 | 615 ft | 13 kts | 180° |
| 2026-05-07 05:44 | 32.89032 | -97.04769 | 614 ft | 13 kts | 180° |
| 2026-05-07 05:45 | 32.88939 | -97.04770 | 613 ft | 13 kts | 180° |
| 2026-05-07 05:45 | 32.88844 | -97.04771 | 617 ft | 14 kts | 180° |
| 2026-05-07 05:45 | 32.88748 | -97.04772 | 614 ft | 14 kts | 180° |
| 2026-05-07 05:45 | 32.88651 | -97.04773 | 614 ft | 14 kts | 180° |
| 2026-05-07 05:46 | 32.88552 | -97.04776 | 614 ft | 14 kts | 190° |
| 2026-05-07 05:46 | 32.88458 | -97.04806 | 615 ft | 14 kts | 187° |
| 2026-05-07 05:46 | 32.88359 | -97.04809 | 614 ft | 14 kts | 180° |
| 2026-05-07 05:46 | 32.88259 | -97.04809 | 615 ft | 14 kts | 180° |
| 2026-05-07 05:47 | 32.88159 | -97.04809 | 619 ft | 14 kts | 180° |
| 2026-05-07 05:47 | 32.88058 | -97.04809 | 614 ft | 15 kts | 180° |
| 2026-05-07 05:47 | 32.87957 | -97.04810 | 620 ft | 14 kts | 189° |
| 2026-05-07 05:47 | 32.87911 | -97.04899 | 611 ft | 14 kts | 270° |
| 2026-05-07 05:48 | 32.87911 | -97.05017 | 606 ft | 14 kts | 270° |
| 2026-05-07 05:48 | 32.87945 | -97.05096 | 612 ft | 11 kts | 14° |
| 2026-05-07 05:48 | 32.88019 | -97.05092 | 623 ft | 11 kts | 359° |
| 2026-05-07 05:48 | 32.88162 | -97.05092 | 614 ft | 44 kts | 0° |
| 2026-05-07 05:49 | 32.88662 | -97.05089 | 614 ft | 99 kts | 0° |
| 2026-05-07 05:49 | 32.89518 | -97.05084 | 623 ft | 146 kts | 0° |
| 2026-05-07 05:49 | 32.90681 | -97.05078 | 621 ft | 186 kts | 1° |
| 2026-05-07 05:49 | 32.92051 | -97.05080 | 836 ft | 203 kts | 1° |
| 2026-05-07 05:50 | 32.93470 | -97.05139 | 1427 ft | 205 kts | 356° |
| 2026-05-07 05:50 | 32.94768 | -97.05789 | 2179 ft | 209 kts | 318° |
| 2026-05-07 05:50 | 32.95431 | -97.07331 | 2673 ft | 222 kts | 282° |
| 2026-05-07 05:50 | 32.95371 | -97.09265 | 2910 ft | 236 kts | 266° |
| 2026-05-07 05:51 | 32.95177 | -97.11231 | 3136 ft | 248 kts | 266° |
| 2026-05-07 05:51 | 32.94974 | -97.13327 | 3356 ft | 261 kts | 266° |
| 2026-05-07 05:51 | 32.94762 | -97.15527 | 3609 ft | 273 kts | 266° |
| 2026-05-07 05:51 | 32.94541 | -97.17800 | 4060 ft | 277 kts | 266° |
| 2026-05-07 05:52 | 32.94316 | -97.20084 | 4712 ft | 273 kts | 265° |
| 2026-05-07 05:52 | 32.94097 | -97.22300 | 5468 ft | 265 kts | 265° |
| 2026-05-07 05:52 | 32.93883 | -97.24459 | 6140 ft | 260 kts | 265° |
| 2026-05-07 05:52 | 32.93671 | -97.26588 | 6728 ft | 258 kts | 265° |
| 2026-05-07 05:53 | 32.93460 | -97.28704 | 7276 ft | 256 kts | 265° |
| 2026-05-07 05:53 | 32.93250 | -97.30810 | 7808 ft | 255 kts | 265° |
| 2026-05-07 05:53 | 32.93041 | -97.32911 | 8327 ft | 255 kts | 265° |
| 2026-05-07 05:53 | 32.92832 | -97.35009 | 8862 ft | 254 kts | 265° |
| 2026-05-07 05:54 | 32.92624 | -97.37096 | 9404 ft | 253 kts | 265° |
| 2026-05-07 05:54 | 32.92415 | -97.39179 | 9938 ft | 253 kts | 265° |
| 2026-05-07 05:54 | 32.92209 | -97.41260 | 10394 ft | 253 kts | 265° |
| 2026-05-07 05:54 | 32.92002 | -97.43341 | 10820 ft | 253 kts | 264° |
| 2026-05-07 05:55 | 32.91794 | -97.45430 | 11251 ft | 255 kts | 264° |
| 2026-05-07 05:55 | 32.91581 | -97.47563 | 11471 ft | 264 kts | 264° |
| 2026-05-07 05:55 | 32.91357 | -97.49784 | 11674 ft | 275 kts | 264° |
| 2026-05-07 05:55 | 32.91125 | -97.52090 | 11791 ft | 286 kts | 263° |
| 2026-05-07 05:56 | 32.90882 | -97.54488 | 11984 ft | 297 kts | 263° |
| 2026-05-07 05:56 | 32.90634 | -97.56937 | 12186 ft | 307 kts | 263° |
| 2026-05-07 05:56 | 32.90371 | -97.59514 | 12382 ft | 318 kts | 263° |
| 2026-05-07 05:56 | 32.90099 | -97.62175 | 12588 ft | 329 kts | 263° |
| 2026-05-07 05:57 | 32.89819 | -97.64926 | 12790 ft | 340 kts | 263° |
| 2026-05-07 05:57 | 32.89531 | -97.67756 | 13052 ft | 348 kts | 263° |
| 2026-05-07 05:57 | 32.89301 | -97.70648 | 13508 ft | 351 kts | 268° |
| 2026-05-07 05:57 | 32.89464 | -97.73561 | 14007 ft | 354 kts | 277° |
| 2026-05-07 05:58 | 32.90038 | -97.76427 | 14465 ft | 358 kts | 285° |
| 2026-05-07 05:58 | 32.90906 | -97.79215 | 14945 ft | 360 kts | 287° |
| 2026-05-07 05:58 | 32.91814 | -97.82003 | 15429 ft | 361 kts | 288° |
| 2026-05-07 05:58 | 32.92731 | -97.84802 | 15896 ft | 362 kts | 288° |
| 2026-05-07 05:59 | 32.93650 | -97.87601 | 16369 ft | 363 kts | 288° |
| 2026-05-07 05:59 | 32.94573 | -97.90417 | 16813 ft | 365 kts | 287° |
| 2026-05-07 05:59 | 32.95497 | -97.93236 | 17267 ft | 366 kts | 287° |
| 2026-05-07 05:59 | 32.96409 | -97.96028 | 17774 ft | 367 kts | 287° |
| 2026-05-07 06:00 | 32.97340 | -97.98874 | 18197 ft | 369 kts | 287° |
| 2026-05-07 06:00 | 32.98285 | -98.01770 | 18580 ft | 370 kts | 287° |
| 2026-05-07 06:00 | 32.99219 | -98.04638 | 18922 ft | 372 kts | 287° |
| 2026-05-07 06:00 | 33.00149 | -98.07492 | 19282 ft | 373 kts | 287° |
| 2026-05-07 06:01 | 33.01088 | -98.10380 | 19661 ft | 374 kts | 286° |
| 2026-05-07 06:01 | 33.02029 | -98.13279 | 20029 ft | 374 kts | 286° |
| 2026-05-07 06:01 | 33.02970 | -98.16178 | 20407 ft | 375 kts | 286° |
| 2026-05-07 06:01 | 33.03913 | -98.19088 | 20768 ft | 376 kts | 286° |
| 2026-05-07 06:02 | 33.04857 | -98.22001 | 21122 ft | 377 kts | 286° |
| 2026-05-07 06:02 | 33.05809 | -98.24929 | 21479 ft | 378 kts | 286° |
| 2026-05-07 06:02 | 33.06767 | -98.27861 | 21824 ft | 379 kts | 286° |
| 2026-05-07 06:02 | 33.07727 | -98.30804 | 22178 ft | 380 kts | 285° |
| 2026-05-07 06:03 | 33.08688 | -98.33749 | 22518 ft | 382 kts | 285° |
| 2026-05-07 06:03 | 33.09653 | -98.36711 | 22841 ft | 383 kts | 285° |
| 2026-05-07 06:03 | 33.10619 | -98.39685 | 23161 ft | 384 kts | 285° |
| 2026-05-07 06:03 | 33.11586 | -98.42667 | 23471 ft | 386 kts | 285° |
| 2026-05-07 06:04 | 33.12556 | -98.45661 | 23781 ft | 387 kts | 285° |
| 2026-05-07 06:04 | 33.13528 | -98.48664 | 24033 ft | 388 kts | 285° |
| 2026-05-07 06:04 | 33.14503 | -98.51677 | 24284 ft | 389 kts | 285° |
| 2026-05-07 06:04 | 33.15481 | -98.54705 | 24541 ft | 390 kts | 284° |
| 2026-05-07 06:05 | 33.16462 | -98.57743 | 24804 ft | 392 kts | 284° |
| 2026-05-07 06:05 | 33.17446 | -98.60793 | 25057 ft | 393 kts | 284° |
| 2026-05-07 06:05 | 33.18415 | -98.63803 | 25302 ft | 394 kts | 284° |
| 2026-05-07 06:05 | 33.19401 | -98.66867 | 25553 ft | 395 kts | 284° |
| 2026-05-07 06:06 | 33.20388 | -98.69936 | 25806 ft | 396 kts | 284° |
| 2026-05-07 06:06 | 33.21378 | -98.73019 | 26034 ft | 397 kts | 284° |
| 2026-05-07 06:06 | 33.22371 | -98.76112 | 26239 ft | 399 kts | 284° |
| 2026-05-07 06:06 | 33.23366 | -98.79219 | 26468 ft | 401 kts | 283° |
| 2026-05-07 06:07 | 33.24363 | -98.82334 | 26696 ft | 402 kts | 283° |
| 2026-05-07 06:07 | 33.25364 | -98.85462 | 26926 ft | 403 kts | 283° |
| 2026-05-07 06:07 | 33.26367 | -98.88602 | 27161 ft | 404 kts | 283° |
| 2026-05-07 06:07 | 33.27372 | -98.91749 | 27399 ft | 405 kts | 283° |
| 2026-05-07 06:08 | 33.28380 | -98.94909 | 27599 ft | 407 kts | 283° |
| 2026-05-07 06:08 | 33.29387 | -98.98072 | 27833 ft | 408 kts | 283° |
| 2026-05-07 06:08 | 33.30401 | -99.01259 | 28054 ft | 409 kts | 283° |
| 2026-05-07 06:08 | 33.31415 | -99.04448 | 28259 ft | 410 kts | 283° |
| 2026-05-07 06:09 | 33.32429 | -99.07643 | 28483 ft | 411 kts | 283° |
| 2026-05-07 06:09 | 33.33445 | -99.10845 | 28673 ft | 413 kts | 283° |
| 2026-05-07 06:09 | 33.34466 | -99.14067 | 28867 ft | 414 kts | 283° |
| 2026-05-07 06:09 | 33.35490 | -99.17304 | 29073 ft | 416 kts | 282° |
| 2026-05-07 06:10 | 33.36515 | -99.20546 | 29283 ft | 417 kts | 282° |
| 2026-05-07 06:10 | 33.37544 | -99.23805 | 29471 ft | 418 kts | 282° |
| 2026-05-07 06:10 | 33.38575 | -99.27073 | 29658 ft | 420 kts | 282° |
| 2026-05-07 06:10 | 33.39610 | -99.30357 | 29835 ft | 421 kts | 282° |
| 2026-05-07 06:11 | 33.40645 | -99.33642 | 30014 ft | 422 kts | 282° |
| 2026-05-07 06:11 | 33.41667 | -99.36895 | 30167 ft | 423 kts | 282° |
| 2026-05-07 06:11 | 33.42706 | -99.40204 | 30294 ft | 424 kts | 282° |
| 2026-05-07 06:11 | 33.43746 | -99.43522 | 30434 ft | 425 kts | 282° |
| 2026-05-07 06:12 | 33.44786 | -99.46840 | 30560 ft | 426 kts | 282° |
| 2026-05-07 06:12 | 33.45829 | -99.50170 | 30676 ft | 427 kts | 282° |
| 2026-05-07 06:12 | 33.46813 | -99.53523 | 30737 ft | 426 kts | 280° |
| 2026-05-07 06:12 | 33.47761 | -99.56897 | 30858 ft | 427 kts | 280° |
| 2026-05-07 06:13 | 33.48707 | -99.60277 | 30973 ft | 427 kts | 280° |
| 2026-05-07 06:13 | 33.49652 | -99.63660 | 31077 ft | 428 kts | 280° |
| 2026-05-07 06:13 | 33.50595 | -99.67046 | 31176 ft | 428 kts | 280° |
| 2026-05-07 06:14 | 33.52481 | -99.73832 | 31350 ft | 429 kts | 280° |
| 2026-05-07 06:14 | 33.54369 | -99.80642 | 31502 ft | 430 kts | 280° |
| 2026-05-07 06:15 | 33.56258 | -99.87465 | 31725 ft | 430 kts | 279° |
| 2026-05-07 06:15 | 33.57199 | -99.90873 | 31834 ft | 429 kts | 279° |
| 2026-05-07 06:15 | 33.58136 | -99.94270 | 31958 ft | 428 kts | 279° |
| 2026-05-07 06:15 | 33.59068 | -99.97660 | 32067 ft | 428 kts | 279° |
| 2026-05-07 06:16 | 33.60005 | -100.01070 | 32165 ft | 427 kts | 279° |
| 2026-05-07 06:16 | 33.61851 | -100.07804 | 32349 ft | 427 kts | 279° |
| 2026-05-07 06:17 | 33.63709 | -100.14571 | 32522 ft | 427 kts | 280° |
| 2026-05-07 06:17 | 33.65878 | -100.21260 | 32699 ft | 432 kts | 284° |
| 2026-05-07 06:18 | 33.68517 | -100.27821 | 32788 ft | 440 kts | 288° |
| 2026-05-07 06:18 | 33.71532 | -100.34306 | 32929 ft | 441 kts | 289° |
| 2026-05-07 06:19 | 33.74539 | -100.40699 | 33062 ft | 441 kts | 289° |
| 2026-05-07 06:19 | 33.77559 | -100.47120 | 33286 ft | 440 kts | 289° |
| 2026-05-07 06:19 | 33.79068 | -100.50331 | 33393 ft | 439 kts | 289° |
| 2026-05-07 06:20 | 33.80569 | -100.53524 | 33519 ft | 438 kts | 289° |
| 2026-05-07 06:20 | 33.83564 | -100.59916 | 33650 ft | 438 kts | 289° |
| 2026-05-07 06:21 | 33.86556 | -100.66310 | 33775 ft | 438 kts | 289° |
| 2026-05-07 06:21 | 33.89545 | -100.72705 | 33902 ft | 438 kts | 289° |
| 2026-05-07 06:22 | 33.92531 | -100.79103 | 34016 ft | 438 kts | 289° |
| 2026-05-07 06:22 | 33.95010 | -100.84424 | 34120 ft | 437 kts | 289° |
| 2026-05-07 06:22 | 33.96493 | -100.87614 | 34179 ft | 437 kts | 289° |
| 2026-05-07 06:23 | 33.99468 | -100.94019 | 34326 ft | 436 kts | 289° |
| 2026-05-07 06:23 | 34.00951 | -100.97215 | 34432 ft | 434 kts | 289° |
| 2026-05-07 06:23 | 34.02426 | -101.00393 | 34551 ft | 432 kts | 289° |
| 2026-05-07 06:24 | 34.05354 | -101.06719 | 34653 ft | 431 kts | 289° |
| 2026-05-07 06:24 | 34.08276 | -101.13048 | 34717 ft | 431 kts | 289° |
| 2026-05-07 06:25 | 34.11197 | -101.19382 | 34765 ft | 431 kts | 289° |
| 2026-05-07 06:25 | 34.14113 | -101.25717 | 34840 ft | 431 kts | 289° |
| 2026-05-07 06:26 | 34.17022 | -101.32051 | 34925 ft | 430 kts | 289° |
| 2026-05-07 06:26 | 34.19924 | -101.38377 | 35040 ft | 429 kts | 289° |
| 2026-05-07 06:27 | 34.21368 | -101.41535 | 35182 ft | 428 kts | 289° |
| 2026-05-07 06:27 | 34.22807 | -101.44679 | 35281 ft | 426 kts | 289° |
| 2026-05-07 06:27 | 34.25671 | -101.50937 | 35397 ft | 424 kts | 289° |
| 2026-05-07 06:28 | 34.28526 | -101.57195 | 35418 ft | 425 kts | 289° |
| 2026-05-07 06:28 | 34.31380 | -101.63461 | 35455 ft | 424 kts | 289° |
| 2026-05-07 06:29 | 34.34230 | -101.69733 | 35493 ft | 424 kts | 289° |
| 2026-05-07 06:29 | 34.37067 | -101.75983 | 35565 ft | 422 kts | 289° |
| 2026-05-07 06:30 | 34.39884 | -101.82202 | 35583 ft | 422 kts | 289° |
| 2026-05-07 06:30 | 34.42704 | -101.88447 | 35672 ft | 421 kts | 290° |
| 2026-05-07 06:31 | 34.45506 | -101.94650 | 35802 ft | 418 kts | 290° |
| 2026-05-07 06:31 | 34.48297 | -102.00842 | 35813 ft | 418 kts | 289° |
| 2026-05-07 06:32 | 34.51083 | -102.07038 | 35837 ft | 418 kts | 290° |
| 2026-05-07 06:32 | 34.53861 | -102.13224 | 35871 ft | 417 kts | 290° |
| 2026-05-07 06:33 | 34.56635 | -102.19414 | 35894 ft | 417 kts | 290° |
| 2026-05-07 06:33 | 34.59424 | -102.25648 | 35901 ft | 417 kts | 290° |
| 2026-05-07 06:34 | 34.60804 | -102.28734 | 36007 ft | 414 kts | 289° |
| 2026-05-07 06:34 | 34.62171 | -102.31790 | 36258 ft | 410 kts | 289° |
| 2026-05-07 06:34 | 34.64880 | -102.37874 | 36287 ft | 410 kts | 289° |
| 2026-05-07 06:35 | 34.67595 | -102.43984 | 36256 ft | 411 kts | 290° |
| 2026-05-07 06:35 | 34.70313 | -102.50103 | 36277 ft | 411 kts | 290° |
| 2026-05-07 06:36 | 34.73030 | -102.56230 | 36274 ft | 411 kts | 290° |
| 2026-05-07 06:36 | 34.75744 | -102.62363 | 36278 ft | 411 kts | 290° |
| 2026-05-07 06:37 | 34.78458 | -102.68505 | 36270 ft | 411 kts | 290° |
| 2026-05-07 06:37 | 34.81166 | -102.74647 | 36268 ft | 411 kts | 289° |
| 2026-05-07 06:38 | 34.83864 | -102.80796 | 36285 ft | 412 kts | 290° |
| 2026-05-07 06:38 | 34.86583 | -102.86984 | 36212 ft | 415 kts | 290° |
| 2026-05-07 06:39 | 34.89288 | -102.93138 | 36236 ft | 414 kts | 290° |
| 2026-05-07 06:39 | 34.92023 | -102.99381 | 36250 ft | 414 kts | 290° |
| 2026-05-07 06:40 | 34.94740 | -103.05597 | 36257 ft | 414 kts | 290° |
| 2026-05-07 06:40 | 34.97433 | -103.11771 | 36263 ft | 414 kts | 290° |
| 2026-05-07 06:41 | 35.00144 | -103.18004 | 36267 ft | 415 kts | 291° |
| 2026-05-07 06:41 | 35.02854 | -103.24239 | 36304 ft | 415 kts | 291° |
| 2026-05-07 06:42 | 35.05571 | -103.30527 | 36166 ft | 420 kts | 292° |
| 2026-05-07 06:42 | 35.08321 | -103.36864 | 36106 ft | 423 kts | 292° |
| 2026-05-07 06:43 | 35.11075 | -103.43227 | 36167 ft | 422 kts | 292° |
| 2026-05-07 06:43 | 35.13824 | -103.49602 | 36163 ft | 422 kts | 292° |
| 2026-05-07 06:44 | 35.16564 | -103.55973 | 36200 ft | 424 kts | 292° |
| 2026-05-07 06:44 | 35.19190 | -103.62431 | 36204 ft | 423 kts | 289° |
| 2026-05-07 06:45 | 35.21642 | -103.68976 | 36241 ft | 422 kts | 289° |
| 2026-05-07 06:45 | 35.24081 | -103.75517 | 36251 ft | 422 kts | 289° |
| 2026-05-07 06:46 | 35.26518 | -103.82074 | 36260 ft | 423 kts | 289° |
| 2026-05-07 06:46 | 35.28935 | -103.88595 | 36220 ft | 424 kts | 289° |
| 2026-05-07 06:47 | 35.31382 | -103.95210 | 36130 ft | 427 kts | 289° |
| 2026-05-07 06:47 | 35.33835 | -104.01845 | 36178 ft | 426 kts | 289° |
| 2026-05-07 06:48 | 35.36282 | -104.08484 | 36190 ft | 427 kts | 289° |
| 2026-05-07 06:48 | 35.38725 | -104.15124 | 36220 ft | 427 kts | 289° |
| 2026-05-07 06:49 | 35.41162 | -104.21778 | 36230 ft | 428 kts | 290° |
| 2026-05-07 06:49 | 35.43619 | -104.28510 | 36074 ft | 435 kts | 291° |
| 2026-05-07 06:50 | 35.46109 | -104.35308 | 35983 ft | 439 kts | 291° |
| 2026-05-07 06:50 | 35.48609 | -104.42152 | 36045 ft | 439 kts | 291° |
| 2026-05-07 06:51 | 35.51102 | -104.48997 | 36084 ft | 439 kts | 291° |
| 2026-05-07 06:51 | 35.53582 | -104.55823 | 36131 ft | 439 kts | 291° |
| 2026-05-07 06:52 | 35.56071 | -104.62693 | 36186 ft | 440 kts | 291° |
| 2026-05-07 06:52 | 35.58558 | -104.69571 | 36208 ft | 440 kts | 290° |
| 2026-05-07 06:53 | 35.61040 | -104.76488 | 36178 ft | 443 kts | 292° |
| 2026-05-07 06:53 | 35.63554 | -104.83465 | 36064 ft | 448 kts | 292° |
| 2026-05-07 06:54 | 35.66082 | -104.90490 | 36100 ft | 448 kts | 292° |
| 2026-05-07 06:54 | 35.68603 | -104.97520 | 36109 ft | 450 kts | 292° |
| 2026-05-07 06:55 | 35.71136 | -105.04602 | 36212 ft | 451 kts | 292° |
| 2026-05-07 06:55 | 35.73644 | -105.11632 | 36282 ft | 451 kts | 292° |
| 2026-05-07 06:56 | 35.76167 | -105.18719 | 36318 ft | 451 kts | 292° |
| 2026-05-07 06:56 | 35.78677 | -105.25820 | 36320 ft | 453 kts | 293° |
| 2026-05-07 06:57 | 35.81206 | -105.32957 | 36214 ft | 456 kts | 293° |
| 2026-05-07 06:57 | 35.83749 | -105.40138 | 36189 ft | 457 kts | 293° |
| 2026-05-07 06:58 | 35.86287 | -105.47329 | 36209 ft | 457 kts | 293° |
| 2026-05-07 06:58 | 35.88821 | -105.54527 | 36240 ft | 457 kts | 293° |
| 2026-05-07 06:59 | 35.91352 | -105.61736 | 36262 ft | 458 kts | 293° |
| 2026-05-07 06:59 | 35.93882 | -105.68967 | 36241 ft | 459 kts | 293° |
| 2026-05-07 07:00 | 35.96402 | -105.76192 | 36212 ft | 461 kts | 293° |
| 2026-05-07 07:00 | 35.98946 | -105.83489 | 36191 ft | 462 kts | 293° |
| 2026-05-07 07:01 | 36.01492 | -105.90805 | 36247 ft | 462 kts | 293° |
| 2026-05-07 07:01 | 36.04031 | -105.98124 | 36291 ft | 463 kts | 293° |
| 2026-05-07 07:02 | 36.06575 | -106.05482 | 36248 ft | 465 kts | 293° |
| 2026-05-07 07:02 | 36.09119 | -106.12849 | 36287 ft | 466 kts | 293° |
| 2026-05-07 07:03 | 36.11664 | -106.20237 | 36328 ft | 466 kts | 293° |
| 2026-05-07 07:03 | 36.14201 | -106.27637 | 36325 ft | 468 kts | 294° |
| 2026-05-07 07:04 | 36.16746 | -106.35059 | 36312 ft | 468 kts | 294° |
| 2026-05-07 07:04 | 36.19290 | -106.42503 | 36289 ft | 470 kts | 294° |
| 2026-05-07 07:05 | 36.21835 | -106.49962 | 36291 ft | 470 kts | 294° |
| 2026-05-07 07:05 | 36.24363 | -106.57393 | 36338 ft | 470 kts | 294° |
| 2026-05-07 07:06 | 36.26903 | -106.64877 | 36371 ft | 471 kts | 294° |
| 2026-05-07 07:06 | 36.29441 | -106.72381 | 36391 ft | 471 kts | 294° |
| 2026-05-07 07:07 | 36.31977 | -106.79899 | 36387 ft | 472 kts | 294° |
| 2026-05-07 07:07 | 36.34511 | -106.87421 | 36413 ft | 472 kts | 294° |
| 2026-05-07 07:08 | 36.37044 | -106.94959 | 36442 ft | 472 kts | 294° |
| 2026-05-07 07:08 | 36.39576 | -107.02514 | 36451 ft | 473 kts | 294° |
| 2026-05-07 07:09 | 36.41673 | -107.08786 | 36456 ft | 473 kts | 294° |
| 2026-05-07 07:09 | 36.44196 | -107.16352 | 36456 ft | 474 kts | 294° |
| 2026-05-07 07:10 | 36.47120 | -107.25151 | 36547 ft | 472 kts | 294° |
| 2026-05-07 07:10 | 36.49217 | -107.31471 | 36605 ft | 471 kts | 294° |
| 2026-05-07 07:11 | 36.51718 | -107.39026 | 36594 ft | 472 kts | 294° |
| 2026-05-07 07:11 | 36.54218 | -107.46598 | 36531 ft | 473 kts | 293° |
| 2026-05-07 07:12 | 36.56698 | -107.54131 | 36539 ft | 473 kts | 293° |
| 2026-05-07 07:12 | 36.59191 | -107.61722 | 36574 ft | 473 kts | 293° |
| 2026-05-07 07:13 | 36.61677 | -107.69314 | 36588 ft | 473 kts | 293° |
| 2026-05-07 07:13 | 36.64160 | -107.76915 | 36625 ft | 472 kts | 293° |
| 2026-05-07 07:14 | 36.66634 | -107.84509 | 36599 ft | 473 kts | 293° |
| 2026-05-07 07:14 | 36.69110 | -107.92130 | 36629 ft | 473 kts | 293° |
| 2026-05-07 07:15 | 36.71576 | -107.99741 | 36660 ft | 473 kts | 293° |
| 2026-05-07 07:15 | 36.74041 | -108.07372 | 36692 ft | 473 kts | 293° |
| 2026-05-07 07:16 | 36.76464 | -108.15014 | 36705 ft | 473 kts | 292° |
| 2026-05-07 07:16 | 36.78828 | -108.22676 | 36774 ft | 472 kts | 292° |
| 2026-05-07 07:17 | 36.81166 | -108.30276 | 36838 ft | 471 kts | 292° |
| 2026-05-07 07:17 | 36.83517 | -108.37932 | 36785 ft | 471 kts | 292° |
| 2026-05-07 07:18 | 36.85861 | -108.45587 | 36752 ft | 471 kts | 292° |
| 2026-05-07 07:18 | 36.88209 | -108.53270 | 36713 ft | 472 kts | 292° |
| 2026-05-07 07:19 | 36.90549 | -108.60941 | 36723 ft | 472 kts | 292° |
| 2026-05-07 07:19 | 36.92885 | -108.68622 | 36721 ft | 472 kts | 292° |
| 2026-05-07 07:20 | 36.95215 | -108.76303 | 36730 ft | 472 kts | 292° |
| 2026-05-07 07:20 | 36.97542 | -108.84001 | 36704 ft | 473 kts | 292° |
| 2026-05-07 07:21 | 36.99872 | -108.91726 | 36709 ft | 473 kts | 292° |
| 2026-05-07 07:21 | 37.02199 | -108.99460 | 36711 ft | 473 kts | 292° |
| 2026-05-07 07:22 | 37.04498 | -109.07125 | 36718 ft | 473 kts | 292° |
| 2026-05-07 07:22 | 37.06808 | -109.14851 | 36708 ft | 473 kts | 292° |
| 2026-05-07 07:23 | 37.09115 | -109.22588 | 36791 ft | 472 kts | 292° |
| 2026-05-07 07:23 | 37.11410 | -109.30300 | 36806 ft | 472 kts | 292° |
| 2026-05-07 07:24 | 37.13701 | -109.38023 | 36806 ft | 472 kts | 292° |
| 2026-05-07 07:24 | 37.15986 | -109.45746 | 36816 ft | 472 kts | 292° |
| 2026-05-07 07:25 | 37.19402 | -109.57340 | 36790 ft | 472 kts | 292° |
| 2026-05-07 07:26 | 37.21661 | -109.65031 | 36797 ft | 472 kts | 292° |
| 2026-05-07 07:26 | 37.23925 | -109.72757 | 36871 ft | 470 kts | 292° |
| 2026-05-07 07:27 | 37.26177 | -109.80468 | 36870 ft | 470 kts | 292° |
| 2026-05-07 07:27 | 37.28428 | -109.88200 | 36839 ft | 470 kts | 292° |
| 2026-05-07 07:28 | 37.30672 | -109.95926 | 36825 ft | 470 kts | 292° |
| 2026-05-07 07:28 | 37.32913 | -110.03662 | 36830 ft | 470 kts | 292° |
| 2026-05-07 07:29 | 37.35147 | -110.11398 | 36823 ft | 470 kts | 292° |
| 2026-05-07 07:29 | 37.37375 | -110.19140 | 36829 ft | 470 kts | 292° |
| 2026-05-07 07:30 | 37.39596 | -110.26874 | 36865 ft | 469 kts | 292° |
| 2026-05-07 07:30 | 37.41806 | -110.34593 | 36839 ft | 469 kts | 291° |
| 2026-05-07 07:31 | 37.44013 | -110.42324 | 36853 ft | 468 kts | 291° |
| 2026-05-07 07:31 | 37.46199 | -110.50007 | 36814 ft | 469 kts | 291° |
| 2026-05-07 07:32 | 37.48399 | -110.57760 | 36794 ft | 469 kts | 291° |
| 2026-05-07 07:32 | 37.50594 | -110.65516 | 36816 ft | 469 kts | 291° |
| 2026-05-07 07:33 | 37.52776 | -110.73250 | 36864 ft | 468 kts | 291° |
| 2026-05-07 07:33 | 37.54953 | -110.80995 | 36827 ft | 468 kts | 291° |
| 2026-05-07 07:34 | 37.57097 | -110.88762 | 36799 ft | 469 kts | 290° |
| 2026-05-07 07:34 | 37.58990 | -110.96650 | 36801 ft | 469 kts | 289° |
| 2026-05-07 07:35 | 37.60855 | -111.04575 | 36806 ft | 469 kts | 289° |
| 2026-05-07 07:35 | 37.62710 | -111.12483 | 36809 ft | 469 kts | 289° |
| 2026-05-07 07:36 | 37.64556 | -111.20381 | 36834 ft | 469 kts | 289° |
| 2026-05-07 07:36 | 37.66399 | -111.28283 | 36857 ft | 468 kts | 289° |
| 2026-05-07 07:37 | 37.68237 | -111.36188 | 36876 ft | 469 kts | 289° |
| 2026-05-07 07:37 | 37.70071 | -111.44103 | 36873 ft | 469 kts | 289° |
| 2026-05-07 07:38 | 37.71886 | -111.51967 | 36882 ft | 469 kts | 289° |
| 2026-05-07 07:38 | 37.73708 | -111.59883 | 36911 ft | 469 kts | 288° |
| 2026-05-07 07:39 | 37.75524 | -111.67805 | 36953 ft | 469 kts | 288° |
| 2026-05-07 07:39 | 37.77332 | -111.75729 | 37017 ft | 468 kts | 289° |
| 2026-05-07 07:40 | 37.79130 | -111.83635 | 37069 ft | 467 kts | 289° |
| 2026-05-07 07:40 | 37.80924 | -111.91543 | 37114 ft | 467 kts | 289° |
| 2026-05-07 07:41 | 37.82640 | -111.99477 | 37115 ft | 468 kts | 286° |
| 2026-05-07 07:41 | 37.83872 | -112.07585 | 37137 ft | 469 kts | 283° |
| 2026-05-07 07:42 | 37.84962 | -112.15670 | 37119 ft | 469 kts | 283° |
| 2026-05-07 07:42 | 37.86054 | -112.23832 | 37109 ft | 469 kts | 283° |
| 2026-05-07 07:43 | 37.87138 | -112.31980 | 37089 ft | 469 kts | 283° |
| 2026-05-07 07:43 | 37.88221 | -112.40146 | 37035 ft | 469 kts | 283° |
| 2026-05-07 07:44 | 37.89298 | -112.48310 | 36991 ft | 469 kts | 283° |
| 2026-05-07 07:44 | 37.90371 | -112.56486 | 36961 ft | 470 kts | 283° |
| 2026-05-07 07:45 | 37.91438 | -112.64673 | 36962 ft | 470 kts | 282° |
| 2026-05-07 07:45 | 37.92499 | -112.72858 | 36951 ft | 470 kts | 282° |
| 2026-05-07 07:46 | 37.93553 | -112.81041 | 36961 ft | 470 kts | 282° |
| 2026-05-07 07:46 | 37.94603 | -112.89227 | 37009 ft | 470 kts | 282° |
| 2026-05-07 07:47 | 37.95646 | -112.97416 | 37031 ft | 470 kts | 282° |
| 2026-05-07 07:47 | 37.96684 | -113.05600 | 37055 ft | 470 kts | 282° |
| 2026-05-07 07:48 | 37.97719 | -113.13810 | 37011 ft | 470 kts | 282° |
| 2026-05-07 07:48 | 37.98747 | -113.22015 | 37013 ft | 471 kts | 282° |
| 2026-05-07 07:49 | 37.99763 | -113.30172 | 37022 ft | 470 kts | 282° |
| 2026-05-07 07:49 | 38.00783 | -113.38405 | 37033 ft | 471 kts | 282° |
| 2026-05-07 07:50 | 38.01793 | -113.46617 | 37022 ft | 471 kts | 282° |
| 2026-05-07 07:50 | 38.02801 | -113.54852 | 37021 ft | 471 kts | 282° |
| 2026-05-07 07:51 | 38.03803 | -113.63086 | 37031 ft | 472 kts | 282° |
| 2026-05-07 07:51 | 38.04801 | -113.71335 | 37029 ft | 472 kts | 282° |
| 2026-05-07 07:52 | 38.05792 | -113.79592 | 37050 ft | 472 kts | 282° |
| 2026-05-07 07:52 | 38.06779 | -113.87850 | 37046 ft | 473 kts | 282° |
| 2026-05-07 07:53 | 38.07760 | -113.96116 | 37065 ft | 473 kts | 282° |
| 2026-05-07 07:53 | 38.08736 | -114.04389 | 37058 ft | 473 kts | 282° |
| 2026-05-07 07:54 | 38.09700 | -114.12609 | 37044 ft | 473 kts | 282° |
| 2026-05-07 07:54 | 38.10664 | -114.20879 | 37044 ft | 473 kts | 282° |
| 2026-05-07 07:55 | 38.11623 | -114.29164 | 37056 ft | 473 kts | 282° |
| 2026-05-07 07:55 | 38.12576 | -114.37446 | 37069 ft | 473 kts | 282° |
| 2026-05-07 07:56 | 38.13522 | -114.45724 | 37062 ft | 473 kts | 282° |
| 2026-05-07 07:56 | 38.14464 | -114.54014 | 37087 ft | 473 kts | 282° |
| 2026-05-07 07:57 | 38.15242 | -114.60902 | 37091 ft | 473 kts | 282° |
| 2026-05-07 07:57 | 38.16173 | -114.69194 | 37093 ft | 473 kts | 282° |
| 2026-05-07 07:58 | 38.17099 | -114.77498 | 37090 ft | 473 kts | 281° |
| 2026-05-07 07:58 | 38.18019 | -114.85800 | 37105 ft | 474 kts | 281° |
| 2026-05-07 07:59 | 38.18934 | -114.94114 | 37051 ft | 475 kts | 281° |
| 2026-05-07 07:59 | 38.19844 | -115.02438 | 37050 ft | 475 kts | 281° |
| 2026-05-07 08:00 | 38.20750 | -115.10780 | 37043 ft | 475 kts | 281° |
| 2026-05-07 08:00 | 38.21649 | -115.19119 | 37074 ft | 475 kts | 281° |
| 2026-05-07 08:01 | 38.22543 | -115.27467 | 37078 ft | 475 kts | 281° |
| 2026-05-07 08:01 | 38.23431 | -115.35808 | 37067 ft | 475 kts | 281° |
| 2026-05-07 08:02 | 38.24312 | -115.44151 | 37118 ft | 475 kts | 281° |
| 2026-05-07 08:02 | 38.25186 | -115.52485 | 37171 ft | 475 kts | 281° |
| 2026-05-07 08:03 | 38.26057 | -115.60843 | 37118 ft | 476 kts | 281° |
| 2026-05-07 08:03 | 38.26919 | -115.69169 | 37112 ft | 476 kts | 281° |
| 2026-05-07 08:04 | 38.27778 | -115.77542 | 37157 ft | 476 kts | 281° |
| 2026-05-07 08:04 | 38.28630 | -115.85906 | 37171 ft | 476 kts | 281° |
| 2026-05-07 08:05 | 38.29477 | -115.94279 | 37189 ft | 476 kts | 281° |
| 2026-05-07 08:05 | 38.30317 | -116.02636 | 37195 ft | 475 kts | 281° |
| 2026-05-07 08:06 | 38.31149 | -116.10993 | 37230 ft | 475 kts | 280° |
| 2026-05-07 08:06 | 38.31977 | -116.19364 | 37184 ft | 477 kts | 280° |
| 2026-05-07 08:07 | 38.32800 | -116.27757 | 37171 ft | 477 kts | 280° |
| 2026-05-07 08:07 | 38.33745 | -116.36114 | 37235 ft | 474 kts | 283° |
| 2026-05-07 08:08 | 38.34931 | -116.44393 | 37263 ft | 474 kts | 283° |
| 2026-05-07 08:08 | 38.36119 | -116.52672 | 37239 ft | 474 kts | 283° |
| 2026-05-07 08:09 | 38.37291 | -116.60896 | 37269 ft | 474 kts | 283° |
| 2026-05-07 08:09 | 38.38461 | -116.69171 | 37310 ft | 473 kts | 283° |
| 2026-05-07 08:10 | 38.39625 | -116.77454 | 37210 ft | 476 kts | 283° |
| 2026-05-07 08:10 | 38.40789 | -116.85779 | 37203 ft | 476 kts | 283° |
| 2026-05-07 08:11 | 38.41945 | -116.94088 | 37247 ft | 475 kts | 283° |
| 2026-05-07 08:11 | 38.43092 | -117.02388 | 37270 ft | 475 kts | 283° |
| 2026-05-07 08:12 | 38.44227 | -117.10642 | 37291 ft | 475 kts | 283° |
| 2026-05-07 08:12 | 38.45364 | -117.18954 | 37293 ft | 475 kts | 283° |
| 2026-05-07 08:13 | 38.46494 | -117.27257 | 37318 ft | 474 kts | 283° |
| 2026-05-07 08:13 | 38.47622 | -117.35593 | 37220 ft | 477 kts | 283° |
| 2026-05-07 08:14 | 38.48744 | -117.43945 | 37239 ft | 477 kts | 283° |
| 2026-05-07 08:14 | 38.49861 | -117.52290 | 37305 ft | 475 kts | 283° |
| 2026-05-07 08:15 | 38.50966 | -117.60601 | 37391 ft | 473 kts | 283° |
| 2026-05-07 08:15 | 38.52063 | -117.68900 | 37364 ft | 474 kts | 282° |
| 2026-05-07 08:16 | 38.53156 | -117.77217 | 37364 ft | 474 kts | 282° |
| 2026-05-07 08:16 | 38.54244 | -117.85554 | 37229 ft | 477 kts | 282° |
| 2026-05-07 08:17 | 38.55399 | -117.93923 | 37222 ft | 476 kts | 285° |
| 2026-05-07 08:17 | 38.57073 | -118.02042 | 37261 ft | 474 kts | 290° |
| 2026-05-07 08:18 | 38.59372 | -118.09920 | 37259 ft | 471 kts | 296° |
| 2026-05-07 08:18 | 38.62216 | -118.17445 | 37331 ft | 469 kts | 300° |
| 2026-05-07 08:19 | 38.65203 | -118.24873 | 37307 ft | 470 kts | 300° |
| 2026-05-07 08:19 | 38.68207 | -118.32348 | 37239 ft | 471 kts | 300° |
| 2026-05-07 08:20 | 38.71196 | -118.39815 | 37297 ft | 470 kts | 300° |
| 2026-05-07 08:20 | 38.74176 | -118.47285 | 37335 ft | 470 kts | 300° |
| 2026-05-07 08:21 | 38.77147 | -118.54755 | 37277 ft | 471 kts | 300° |
| 2026-05-07 08:21 | 38.80127 | -118.62261 | 37269 ft | 472 kts | 300° |
| 2026-05-07 08:22 | 38.83104 | -118.69776 | 37295 ft | 472 kts | 299° |
| 2026-05-07 08:22 | 38.86070 | -118.77286 | 37344 ft | 471 kts | 299° |
| 2026-05-07 08:23 | 38.89035 | -118.84818 | 37300 ft | 473 kts | 300° |
| 2026-05-07 08:23 | 38.91987 | -118.92326 | 37260 ft | 474 kts | 300° |
| 2026-05-07 08:24 | 38.94993 | -118.99986 | 37334 ft | 473 kts | 299° |
| 2026-05-07 08:24 | 38.97948 | -119.07544 | 37397 ft | 472 kts | 299° |
| 2026-05-07 08:25 | 39.00893 | -119.15093 | 37384 ft | 472 kts | 299° |
| 2026-05-07 08:25 | 39.03840 | -119.22667 | 37390 ft | 472 kts | 299° |
| 2026-05-07 08:26 | 39.08247 | -119.34026 | 37518 ft | 470 kts | 299° |
| 2026-05-07 08:26 | 39.11164 | -119.41572 | 37524 ft | 471 kts | 299° |
| 2026-05-07 08:27 | 39.14093 | -119.49170 | 37412 ft | 475 kts | 299° |
| 2026-05-07 08:27 | 39.17011 | -119.56752 | 37487 ft | 474 kts | 299° |
| 2026-05-07 08:28 | 39.19929 | -119.64354 | 37605 ft | 472 kts | 298° |
| 2026-05-07 08:28 | 39.22840 | -119.71959 | 37592 ft | 473 kts | 298° |
| 2026-05-07 08:29 | 39.25753 | -119.79591 | 37508 ft | 475 kts | 298° |
| 2026-05-07 08:29 | 39.28678 | -119.87267 | 37516 ft | 474 kts | 298° |
| 2026-05-07 08:30 | 39.31582 | -119.94912 | 37500 ft | 474 kts | 298° |
| 2026-05-07 08:30 | 39.34483 | -120.02571 | 37610 ft | 474 kts | 298° |
| 2026-05-07 08:31 | 39.37388 | -120.10262 | 37516 ft | 477 kts | 298° |
| 2026-05-07 08:31 | 39.38847 | -120.14127 | 37311 ft | 477 kts | 298° |
| 2026-05-07 08:31 | 39.40298 | -120.17979 | 37392 ft | 475 kts | 298° |
| 2026-05-07 08:32 | 39.43167 | -120.25614 | 37442 ft | 474 kts | 298° |
| 2026-05-07 08:32 | 39.46054 | -120.33321 | 37438 ft | 475 kts | 298° |
| 2026-05-07 08:33 | 39.48859 | -120.41138 | 37320 ft | 478 kts | 296° |
| 2026-05-07 08:33 | 39.51555 | -120.49006 | 37425 ft | 476 kts | 296° |
| 2026-05-07 08:34 | 39.54245 | -120.56864 | 37446 ft | 477 kts | 296° |
| 2026-05-07 08:34 | 39.56940 | -120.64729 | 37435 ft | 478 kts | 296° |
| 2026-05-07 08:35 | 39.59645 | -120.72635 | 37387 ft | 480 kts | 296° |
| 2026-05-07 08:35 | 39.62352 | -120.80565 | 37437 ft | 480 kts | 296° |
| 2026-05-07 08:36 | 39.65052 | -120.88499 | 37471 ft | 480 kts | 296° |
| 2026-05-07 08:36 | 39.67750 | -120.96448 | 37477 ft | 481 kts | 296° |
| 2026-05-07 08:37 | 39.70447 | -121.04407 | 37523 ft | 481 kts | 296° |
| 2026-05-07 08:37 | 39.73118 | -121.12321 | 37556 ft | 481 kts | 296° |
| 2026-05-07 08:38 | 39.75804 | -121.20298 | 37568 ft | 481 kts | 296° |
| 2026-05-07 08:38 | 39.78485 | -121.28286 | 37574 ft | 482 kts | 296° |
| 2026-05-07 08:39 | 39.81165 | -121.36291 | 37577 ft | 482 kts | 296° |
| 2026-05-07 08:39 | 39.83841 | -121.44306 | 37583 ft | 482 kts | 295° |
| 2026-05-07 08:40 | 39.86508 | -121.52318 | 37590 ft | 482 kts | 295° |
| 2026-05-07 08:40 | 39.89172 | -121.60337 | 37611 ft | 482 kts | 295° |
| 2026-05-07 08:41 | 39.91830 | -121.68370 | 37582 ft | 483 kts | 295° |
| 2026-05-07 08:41 | 39.94485 | -121.76417 | 37608 ft | 483 kts | 295° |
| 2026-05-07 08:42 | 39.97119 | -121.84418 | 37635 ft | 482 kts | 295° |
| 2026-05-07 08:42 | 39.99762 | -121.92476 | 37582 ft | 484 kts | 295° |
| 2026-05-07 08:43 | 40.02405 | -122.00557 | 37588 ft | 484 kts | 295° |
| 2026-05-07 08:43 | 40.05043 | -122.08646 | 37597 ft | 484 kts | 295° |
| 2026-05-07 08:44 | 40.07672 | -122.16735 | 37649 ft | 483 kts | 294° |
| 2026-05-07 08:44 | 40.10290 | -122.24838 | 37680 ft | 483 kts | 294° |
| 2026-05-07 08:45 | 40.12334 | -122.31635 | 37677 ft | 483 kts | 292° |
| 2026-05-07 08:45 | 40.15139 | -122.41188 | 37737 ft | 482 kts | 292° |
| 2026-05-07 08:46 | 40.17548 | -122.49388 | 37720 ft | 482 kts | 292° |
| 2026-05-07 08:46 | 40.19570 | -122.56270 | 37668 ft | 483 kts | 292° |
| 2026-05-07 08:47 | 40.21980 | -122.64488 | 37698 ft | 483 kts | 292° |
| 2026-05-07 08:47 | 40.24386 | -122.72716 | 37687 ft | 483 kts | 292° |
| 2026-05-07 08:48 | 40.26769 | -122.80886 | 37663 ft | 484 kts | 292° |
| 2026-05-07 08:48 | 40.29166 | -122.89129 | 37688 ft | 483 kts | 292° |
| 2026-05-07 08:49 | 40.31565 | -122.97409 | 37745 ft | 483 kts | 292° |
| 2026-05-07 08:49 | 40.33943 | -123.05647 | 37756 ft | 483 kts | 292° |
| 2026-05-07 08:50 | 40.36321 | -123.13896 | 37752 ft | 483 kts | 291° |
| 2026-05-07 08:50 | 40.38693 | -123.22167 | 37756 ft | 483 kts | 291° |
| 2026-05-07 08:51 | 40.41057 | -123.30433 | 37765 ft | 483 kts | 291° |
| 2026-05-07 08:51 | 40.43416 | -123.38705 | 37771 ft | 483 kts | 291° |
| 2026-05-07 08:52 | 40.45774 | -123.46999 | 37744 ft | 485 kts | 291° |
| 2026-05-07 08:52 | 40.48125 | -123.55297 | 37838 ft | 482 kts | 291° |
| 2026-05-07 08:53 | 40.50462 | -123.63573 | 37856 ft | 482 kts | 291° |
| 2026-05-07 08:53 | 40.52793 | -123.71852 | 37849 ft | 483 kts | 291° |
| 2026-05-07 08:54 | 40.55106 | -123.80098 | 37841 ft | 483 kts | 291° |
| 2026-05-07 08:54 | 40.57428 | -123.88405 | 37862 ft | 483 kts | 291° |
| 2026-05-07 08:55 | 40.59745 | -123.96721 | 37862 ft | 483 kts | 291° |
| 2026-05-07 08:55 | 40.62055 | -124.05036 | 37859 ft | 484 kts | 290° |
| 2026-05-07 08:56 | 40.64365 | -124.13384 | 37815 ft | 484 kts | 290° |
| 2026-05-07 08:56 | 40.66740 | -124.21654 | 37988 ft | 480 kts | 294° |
| 2026-05-07 08:57 | 40.69643 | -124.29588 | 37942 ft | 480 kts | 298° |
| 2026-05-07 08:57 | 40.72819 | -124.37347 | 37892 ft | 482 kts | 298° |
| 2026-05-07 08:58 | 40.76020 | -124.45166 | 37787 ft | 485 kts | 298° |
| 2026-05-07 08:58 | 40.79212 | -124.53002 | 37844 ft | 484 kts | 298° |
| 2026-05-07 08:59 | 40.82396 | -124.60844 | 37853 ft | 484 kts | 298° |
| 2026-05-07 08:59 | 40.85581 | -124.68712 | 37833 ft | 486 kts | 298° |
| 2026-05-07 09:00 | 40.88767 | -124.76605 | 37849 ft | 486 kts | 298° |
| 2026-05-07 09:00 | 40.91944 | -124.84495 | 37873 ft | 486 kts | 298° |
| 2026-05-07 09:01 | 40.95119 | -124.92399 | 37872 ft | 486 kts | 298° |
| 2026-05-07 09:01 | 40.98292 | -125.00326 | 37871 ft | 487 kts | 298° |
| 2026-05-07 09:02 | 41.01438 | -125.08201 | 37896 ft | 487 kts | 298° |
| 2026-05-07 09:02 | 41.04600 | -125.16141 | 37913 ft | 486 kts | 298° |
| 2026-05-07 09:03 | 41.07756 | -125.24086 | 37917 ft | 487 kts | 298° |
| 2026-05-07 09:03 | 41.10909 | -125.32043 | 37950 ft | 487 kts | 298° |
| 2026-05-07 09:04 | 41.14060 | -125.40015 | 37960 ft | 487 kts | 297° |
| 2026-05-07 09:04 | 41.17211 | -125.48011 | 37904 ft | 488 kts | 297° |
| 2026-05-07 09:05 | 41.20361 | -125.56030 | 37954 ft | 488 kts | 297° |
| 2026-05-07 09:05 | 41.23496 | -125.64028 | 37970 ft | 488 kts | 297° |
| 2026-05-07 09:06 | 41.26610 | -125.71997 | 37928 ft | 489 kts | 297° |
| 2026-05-07 09:06 | 41.29746 | -125.80041 | 37976 ft | 488 kts | 297° |
| 2026-05-07 09:07 | 41.32872 | -125.88082 | 37999 ft | 489 kts | 297° |
| 2026-05-07 09:07 | 41.35999 | -125.96144 | 37934 ft | 490 kts | 297° |
| 2026-05-07 09:08 | 41.39126 | -126.04237 | 37936 ft | 491 kts | 297° |
| 2026-05-07 09:08 | 41.42244 | -126.12327 | 37998 ft | 490 kts | 297° |
| 2026-05-07 09:09 | 41.45339 | -126.20379 | 37963 ft | 491 kts | 297° |
| 2026-05-07 09:09 | 41.48450 | -126.28497 | 38019 ft | 490 kts | 297° |
| 2026-05-07 09:10 | 41.51551 | -126.36607 | 38056 ft | 490 kts | 297° |
| 2026-05-07 09:10 | 41.54650 | -126.44736 | 37998 ft | 492 kts | 297° |
| 2026-05-07 09:11 | 41.57747 | -126.52889 | 38059 ft | 491 kts | 297° |
| 2026-05-07 09:11 | 41.60830 | -126.61023 | 38110 ft | 490 kts | 297° |
| 2026-05-07 09:12 | 41.63910 | -126.69171 | 38071 ft | 491 kts | 297° |
| 2026-05-07 09:12 | 41.66984 | -126.77335 | 38095 ft | 491 kts | 297° |
| 2026-05-07 09:13 | 41.70120 | -126.85435 | 38178 ft | 489 kts | 300° |
| 2026-05-07 09:13 | 41.73540 | -126.93340 | 38074 ft | 491 kts | 300° |
| 2026-05-07 09:14 | 41.76970 | -127.01219 | 38076 ft | 491 kts | 300° |
| 2026-05-07 09:14 | 41.80398 | -127.09131 | 38177 ft | 490 kts | 300° |
| 2026-05-07 09:15 | 41.83819 | -127.17056 | 38181 ft | 490 kts | 300° |
| 2026-05-07 09:15 | 41.87231 | -127.24986 | 38192 ft | 490 kts | 300° |
| 2026-05-07 09:16 | 41.90636 | -127.32919 | 38164 ft | 490 kts | 300° |
| 2026-05-07 09:16 | 41.94026 | -127.40841 | 38238 ft | 488 kts | 300° |
| 2026-05-07 09:17 | 41.97411 | -127.48773 | 38221 ft | 489 kts | 300° |
| 2026-05-07 09:17 | 42.00790 | -127.56712 | 38223 ft | 489 kts | 300° |
| 2026-05-07 09:18 | 42.04157 | -127.64642 | 38285 ft | 487 kts | 300° |
| 2026-05-07 09:18 | 42.07515 | -127.72573 | 38292 ft | 487 kts | 300° |
| 2026-05-07 09:19 | 42.10864 | -127.80507 | 38289 ft | 486 kts | 300° |
| 2026-05-07 09:19 | 42.14206 | -127.88441 | 38295 ft | 486 kts | 299° |
| 2026-05-07 09:20 | 42.17540 | -127.96383 | 38298 ft | 486 kts | 299° |
| 2026-05-07 09:20 | 42.20872 | -128.04336 | 38300 ft | 486 kts | 299° |
| 2026-05-07 09:21 | 42.24195 | -128.12293 | 38303 ft | 486 kts | 299° |
| 2026-05-07 09:21 | 42.27512 | -128.20251 | 38299 ft | 486 kts | 299° |
| 2026-05-07 09:22 | 42.30800 | -128.28167 | 38300 ft | 486 kts | 299° |
| 2026-05-07 09:22 | 42.34127 | -128.36200 | 38301 ft | 486 kts | 299° |
| 2026-05-07 09:23 | 42.37408 | -128.44133 | 38308 ft | 485 kts | 298° |
| 2026-05-07 09:23 | 42.40688 | -128.52105 | 38309 ft | 485 kts | 299° |
| 2026-05-07 09:24 | 42.43973 | -128.60100 | 38304 ft | 485 kts | 298° |
| 2026-05-07 09:24 | 42.47244 | -128.68087 | 38317 ft | 484 kts | 298° |
| 2026-05-07 09:25 | 42.50502 | -128.76066 | 38313 ft | 483 kts | 298° |
| 2026-05-07 09:25 | 42.53751 | -128.84038 | 38314 ft | 482 kts | 298° |
| 2026-05-07 09:26 | 42.56991 | -128.92017 | 38316 ft | 482 kts | 298° |
| 2026-05-07 09:26 | 42.60221 | -128.99982 | 38316 ft | 480 kts | 298° |
| 2026-05-07 09:27 | 42.63426 | -129.07908 | 38315 ft | 478 kts | 298° |
| 2026-05-07 09:28 | 42.68219 | -129.19814 | 38299 ft | 478 kts | 297° |
| 2026-05-07 09:28 | 42.71401 | -129.27745 | 38303 ft | 476 kts | 297° |
| 2026-05-07 09:29 | 42.74572 | -129.35672 | 38321 ft | 477 kts | 297° |
| 2026-05-07 09:29 | 42.77743 | -129.43602 | 38314 ft | 476 kts | 297° |
| 2026-05-07 09:30 | 42.80882 | -129.51494 | 38326 ft | 476 kts | 297° |
| 2026-05-07 09:30 | 42.84035 | -129.59438 | 38307 ft | 476 kts | 297° |
| 2026-05-07 09:31 | 42.87185 | -129.67389 | 38314 ft | 475 kts | 297° |
| 2026-05-07 09:31 | 42.90322 | -129.75337 | 38329 ft | 476 kts | 297° |
| 2026-05-07 09:32 | 42.93459 | -129.83298 | 38312 ft | 475 kts | 297° |
| 2026-05-07 09:32 | 42.96060 | -129.89924 | 38335 ft | 475 kts | 297° |
| 2026-05-07 09:33 | 42.99315 | -129.97804 | 38318 ft | 476 kts | 301° |
| 2026-05-07 09:33 | 43.03099 | -130.05229 | 38328 ft | 477 kts | 307° |
| 2026-05-07 09:34 | 43.07249 | -130.12311 | 38324 ft | 477 kts | 307° |
| 2026-05-07 09:34 | 43.11421 | -130.19373 | 38328 ft | 477 kts | 307° |
| 2026-05-07 09:35 | 43.15580 | -130.26440 | 38329 ft | 476 kts | 307° |
| 2026-05-07 09:35 | 43.19739 | -130.33522 | 38333 ft | 476 kts | 307° |
| 2026-05-07 09:36 | 43.23884 | -130.40612 | 38334 ft | 476 kts | 307° |
| 2026-05-07 09:36 | 43.28030 | -130.47720 | 38333 ft | 476 kts | 307° |
| 2026-05-07 09:37 | 43.32165 | -130.54826 | 38332 ft | 476 kts | 307° |
| 2026-05-07 09:37 | 43.36267 | -130.61890 | 38334 ft | 476 kts | 307° |
| 2026-05-07 09:38 | 43.40396 | -130.69019 | 38335 ft | 476 kts | 307° |
| 2026-05-07 09:38 | 43.44518 | -130.76153 | 38341 ft | 476 kts | 306° |
| 2026-05-07 09:39 | 43.48637 | -130.83296 | 38328 ft | 475 kts | 306° |
| 2026-05-07 09:39 | 43.52743 | -130.90440 | 38334 ft | 475 kts | 306° |
| 2026-05-07 09:40 | 43.56848 | -130.97601 | 38332 ft | 475 kts | 306° |
| 2026-05-07 09:40 | 43.60950 | -131.04764 | 38336 ft | 475 kts | 306° |
| 2026-05-07 09:41 | 43.65042 | -131.11937 | 38334 ft | 475 kts | 306° |
| 2026-05-07 09:41 | 43.69130 | -131.19120 | 38336 ft | 475 kts | 306° |
| 2026-05-07 09:42 | 43.73186 | -131.26257 | 38335 ft | 475 kts | 305° |
| 2026-05-07 09:42 | 43.77271 | -131.33468 | 38333 ft | 476 kts | 305° |
| 2026-05-07 09:43 | 43.81352 | -131.40693 | 38332 ft | 476 kts | 305° |
| 2026-05-07 09:43 | 43.85426 | -131.47920 | 38343 ft | 476 kts | 305° |
| 2026-05-07 09:44 | 43.89506 | -131.55172 | 38338 ft | 476 kts | 304° |
| 2026-05-07 09:44 | 43.93585 | -131.62446 | 38332 ft | 476 kts | 304° |
| 2026-05-07 09:45 | 43.97650 | -131.69712 | 38336 ft | 476 kts | 304° |
| 2026-05-07 09:45 | 44.01684 | -131.76939 | 38335 ft | 477 kts | 304° |
| 2026-05-07 09:46 | 44.05775 | -131.84286 | 38338 ft | 477 kts | 304° |
| 2026-05-07 09:46 | 44.09803 | -131.91542 | 38343 ft | 477 kts | 304° |
| 2026-05-07 09:47 | 44.13858 | -131.98858 | 38350 ft | 477 kts | 304° |
| 2026-05-07 09:47 | 44.17909 | -132.06189 | 38342 ft | 477 kts | 304° |
| 2026-05-07 09:48 | 44.21952 | -132.13527 | 38335 ft | 477 kts | 304° |
| 2026-05-07 09:48 | 44.25992 | -132.20877 | 38339 ft | 477 kts | 304° |
| 2026-05-07 09:49 | 44.30028 | -132.28230 | 38332 ft | 477 kts | 303° |
| 2026-05-07 09:49 | 44.34059 | -132.35605 | 38352 ft | 477 kts | 303° |
| 2026-05-07 09:50 | 44.38078 | -132.42973 | 38339 ft | 476 kts | 303° |
| 2026-05-07 09:50 | 44.42098 | -132.50354 | 38337 ft | 476 kts | 303° |
| 2026-05-07 09:51 | 44.46097 | -132.57722 | 38335 ft | 475 kts | 303° |
| 2026-05-07 09:51 | 44.50066 | -132.65056 | 38337 ft | 475 kts | 303° |
| 2026-05-07 09:52 | 44.54082 | -132.72494 | 38355 ft | 475 kts | 303° |
| 2026-05-07 09:52 | 44.58042 | -132.79843 | 38338 ft | 474 kts | 302° |
| 2026-05-07 09:53 | 44.62015 | -132.87240 | 38337 ft | 474 kts | 302° |
| 2026-05-07 09:53 | 44.65984 | -132.94648 | 38336 ft | 474 kts | 302° |
| 2026-05-07 09:54 | 44.69946 | -133.02061 | 38339 ft | 474 kts | 302° |
| 2026-05-07 09:54 | 44.73902 | -133.09482 | 38336 ft | 474 kts | 302° |
| 2026-05-07 09:55 | 44.77854 | -133.16911 | 38333 ft | 474 kts | 302° |
| 2026-05-07 09:55 | 44.81799 | -133.24348 | 38343 ft | 474 kts | 302° |
| 2026-05-07 09:56 | 44.85750 | -133.31816 | 38338 ft | 475 kts | 302° |
| 2026-05-07 09:56 | 44.89701 | -133.39305 | 38333 ft | 475 kts | 302° |
| 2026-05-07 09:57 | 44.93626 | -133.46763 | 38331 ft | 475 kts | 302° |
| 2026-05-07 09:57 | 44.97573 | -133.54274 | 38336 ft | 477 kts | 301° |
| 2026-05-07 09:58 | 45.01532 | -133.61839 | 38335 ft | 480 kts | 301° |
| 2026-05-07 09:58 | 45.05510 | -133.69465 | 38330 ft | 481 kts | 301° |
| 2026-05-07 09:59 | 45.09496 | -133.77119 | 38351 ft | 483 kts | 301° |
| 2026-05-07 09:59 | 45.13495 | -133.84805 | 38333 ft | 485 kts | 300° |
| 2026-05-07 10:00 | 45.17496 | -133.92537 | 38328 ft | 486 kts | 300° |
| 2026-05-07 10:00 | 45.21467 | -134.00227 | 38330 ft | 486 kts | 300° |
| 2026-05-07 10:01 | 45.25446 | -134.07948 | 38336 ft | 481 kts | 300° |
| 2026-05-07 10:01 | 45.29380 | -134.15603 | 38331 ft | 479 kts | 300° |
| 2026-05-07 10:02 | 45.33303 | -134.23261 | 38321 ft | 478 kts | 300° |
| 2026-05-07 10:02 | 45.37218 | -134.30924 | 38339 ft | 479 kts | 300° |
| 2026-05-07 10:03 | 45.41139 | -134.38621 | 38327 ft | 481 kts | 300° |
| 2026-05-07 10:03 | 45.45065 | -134.46347 | 38328 ft | 481 kts | 300° |
| 2026-05-07 10:04 | 45.48984 | -134.54077 | 38323 ft | 481 kts | 300° |
| 2026-05-07 10:04 | 45.52902 | -134.61825 | 38332 ft | 482 kts | 300° |
| 2026-05-07 10:05 | 45.56835 | -134.69631 | 38324 ft | 484 kts | 300° |
| 2026-05-07 10:05 | 45.60770 | -134.77461 | 38319 ft | 485 kts | 300° |
| 2026-05-07 10:06 | 45.64701 | -134.85303 | 38333 ft | 485 kts | 299° |
| 2026-05-07 10:06 | 45.68591 | -134.93075 | 38313 ft | 482 kts | 299° |
| 2026-05-07 10:07 | 45.72490 | -135.00900 | 38321 ft | 482 kts | 299° |
| 2026-05-07 10:07 | 45.76377 | -135.08724 | 38303 ft | 482 kts | 299° |
| 2026-05-07 10:08 | 45.80262 | -135.16559 | 38321 ft | 481 kts | 299° |
| 2026-05-07 10:08 | 45.84133 | -135.24388 | 38312 ft | 480 kts | 299° |
| 2026-05-07 10:09 | 45.87996 | -135.32226 | 38311 ft | 480 kts | 298° |
| 2026-05-07 10:09 | 45.91849 | -135.40061 | 38337 ft | 480 kts | 298° |
| 2026-05-07 10:10 | 45.95710 | -135.47937 | 38317 ft | 482 kts | 298° |
| 2026-05-07 10:10 | 45.99544 | -135.55779 | 38310 ft | 482 kts | 298° |
| 2026-05-07 10:11 | 46.03398 | -135.63684 | 38306 ft | 482 kts | 298° |
| 2026-05-07 10:11 | 46.07247 | -135.71600 | 38306 ft | 482 kts | 298° |
| 2026-05-07 10:12 | 46.11091 | -135.79529 | 38305 ft | 482 kts | 298° |
| 2026-05-07 10:12 | 46.14927 | -135.87463 | 38307 ft | 482 kts | 298° |
| 2026-05-07 10:13 | 46.18757 | -135.95407 | 38305 ft | 481 kts | 298° |
| 2026-05-07 10:13 | 46.22593 | -136.03381 | 38308 ft | 484 kts | 298° |
| 2026-05-07 10:14 | 46.26430 | -136.11389 | 38305 ft | 484 kts | 298° |
| 2026-05-07 10:14 | 46.30264 | -136.19409 | 38303 ft | 484 kts | 298° |
| 2026-05-07 10:15 | 46.34090 | -136.27436 | 38321 ft | 484 kts | 298° |
| 2026-05-07 10:15 | 46.37914 | -136.35482 | 38308 ft | 484 kts | 298° |
| 2026-05-07 10:16 | 46.41706 | -136.43483 | 38304 ft | 484 kts | 297° |
| 2026-05-07 10:16 | 46.45515 | -136.51543 | 38300 ft | 484 kts | 297° |
| 2026-05-07 10:17 | 46.49321 | -136.59625 | 38299 ft | 484 kts | 298° |
| 2026-05-07 10:17 | 46.53116 | -136.67701 | 38294 ft | 484 kts | 297° |
| 2026-05-07 10:18 | 46.56908 | -136.75793 | 38292 ft | 484 kts | 297° |
| 2026-05-07 10:18 | 46.60695 | -136.83898 | 38293 ft | 484 kts | 297° |
| 2026-05-07 10:19 | 46.64469 | -136.92001 | 38294 ft | 483 kts | 297° |
| 2026-05-07 10:19 | 46.68236 | -137.00112 | 38295 ft | 483 kts | 297° |
| 2026-05-07 10:20 | 46.71366 | -137.06870 | 38282 ft | 483 kts | 297° |
| 2026-05-07 10:20 | 46.75120 | -137.14996 | 38312 ft | 483 kts | 297° |
| 2026-05-07 10:21 | 46.78873 | -137.23143 | 38283 ft | 483 kts | 297° |
| 2026-05-07 10:21 | 46.82623 | -137.31308 | 38279 ft | 483 kts | 297° |
| 2026-05-07 10:22 | 46.86366 | -137.39483 | 38278 ft | 483 kts | 297° |
| 2026-05-07 10:22 | 46.90079 | -137.47615 | 38288 ft | 485 kts | 297° |
| 2026-05-07 10:23 | 46.93825 | -137.55846 | 38275 ft | 485 kts | 297° |
| 2026-05-07 10:23 | 46.97567 | -137.64092 | 38274 ft | 485 kts | 297° |
| 2026-05-07 10:24 | 47.01300 | -137.72341 | 38274 ft | 485 kts | 297° |
| 2026-05-07 10:24 | 47.05034 | -137.80624 | 38276 ft | 487 kts | 297° |
| 2026-05-07 10:25 | 47.08775 | -137.88940 | 38269 ft | 488 kts | 297° |
| 2026-05-07 10:25 | 47.12512 | -137.97271 | 38264 ft | 487 kts | 297° |
| 2026-05-07 10:26 | 47.16236 | -138.05599 | 38292 ft | 487 kts | 297° |
| 2026-05-07 10:26 | 47.19950 | -138.13933 | 38266 ft | 486 kts | 297° |
| 2026-05-07 10:27 | 47.23632 | -138.22217 | 38263 ft | 486 kts | 296° |
| 2026-05-07 10:27 | 47.27328 | -138.30559 | 38263 ft | 486 kts | 296° |
| 2026-05-07 10:28 | 47.31021 | -138.38918 | 38274 ft | 485 kts | 296° |
| 2026-05-07 10:28 | 47.34690 | -138.47245 | 38261 ft | 483 kts | 296° |
| 2026-05-07 10:29 | 47.38348 | -138.55578 | 38257 ft | 483 kts | 296° |
| 2026-05-07 10:29 | 47.42001 | -138.63925 | 38252 ft | 483 kts | 296° |
| 2026-05-07 10:30 | 47.47463 | -138.76453 | 38252 ft | 483 kts | 296° |
| 2026-05-07 10:30 | 47.51071 | -138.84760 | 38252 ft | 483 kts | 296° |
| 2026-05-07 10:31 | 47.54699 | -138.93140 | 38252 ft | 483 kts | 296° |
| 2026-05-07 10:31 | 47.58318 | -139.01522 | 38261 ft | 482 kts | 296° |
| 2026-05-07 10:32 | 47.61928 | -139.09912 | 38256 ft | 482 kts | 296° |
| 2026-05-07 10:32 | 47.65530 | -139.18305 | 38252 ft | 482 kts | 296° |
| 2026-05-07 10:33 | 47.69125 | -139.26710 | 38247 ft | 482 kts | 296° |
| 2026-05-07 10:33 | 47.72715 | -139.35132 | 38255 ft | 482 kts | 296° |
| 2026-05-07 10:34 | 47.76304 | -139.43573 | 38246 ft | 482 kts | 296° |
| 2026-05-07 10:34 | 47.79883 | -139.52016 | 38242 ft | 482 kts | 296° |
| 2026-05-07 10:35 | 47.83457 | -139.60476 | 38241 ft | 482 kts | 295° |
| 2026-05-07 10:35 | 47.87002 | -139.68894 | 38240 ft | 482 kts | 296° |
| 2026-05-07 10:36 | 47.90564 | -139.77377 | 38236 ft | 482 kts | 295° |
| 2026-05-07 10:36 | 47.94122 | -139.85878 | 38236 ft | 482 kts | 295° |
| 2026-05-07 10:37 | 47.97669 | -139.94382 | 38260 ft | 482 kts | 295° |
| 2026-05-07 10:37 | 48.01324 | -140.02773 | 38235 ft | 483 kts | 299° |
| 2026-05-07 10:38 | 48.05239 | -140.10970 | 38234 ft | 483 kts | 299° |
| 2026-05-07 10:38 | 48.09134 | -140.19098 | 38225 ft | 483 kts | 299° |
| 2026-05-07 10:39 | 48.13045 | -140.27299 | 38231 ft | 483 kts | 299° |
| 2026-05-07 10:39 | 48.16943 | -140.35509 | 38223 ft | 483 kts | 299° |
| 2026-05-07 10:40 | 48.20831 | -140.43723 | 38221 ft | 483 kts | 299° |
| 2026-05-07 10:40 | 48.24712 | -140.51951 | 38220 ft | 483 kts | 299° |
| 2026-05-07 10:41 | 48.28586 | -140.60190 | 38232 ft | 484 kts | 299° |
| 2026-05-07 10:41 | 48.32471 | -140.68477 | 38219 ft | 484 kts | 299° |
| 2026-05-07 10:42 | 48.36350 | -140.76771 | 38209 ft | 484 kts | 299° |
| 2026-05-07 10:42 | 48.40222 | -140.85079 | 38209 ft | 484 kts | 299° |
| 2026-05-07 10:43 | 48.44091 | -140.93414 | 38213 ft | 486 kts | 299° |
| 2026-05-07 10:43 | 48.47961 | -141.01768 | 38203 ft | 486 kts | 299° |
| 2026-05-07 10:44 | 48.51833 | -141.10150 | 38200 ft | 486 kts | 299° |
| 2026-05-07 10:44 | 48.55694 | -141.18538 | 38207 ft | 486 kts | 298° |
| 2026-05-07 10:45 | 48.59529 | -141.26895 | 38208 ft | 487 kts | 298° |
| 2026-05-07 10:45 | 48.63385 | -141.35325 | 38204 ft | 487 kts | 298° |
| 2026-05-07 10:46 | 48.67237 | -141.43771 | 38194 ft | 487 kts | 298° |
| 2026-05-07 10:46 | 48.71084 | -141.52232 | 38215 ft | 487 kts | 298° |
| 2026-05-07 10:47 | 48.74934 | -141.60727 | 38197 ft | 489 kts | 298° |
| 2026-05-07 10:47 | 48.78777 | -141.69235 | 38192 ft | 489 kts | 298° |
| 2026-05-07 10:48 | 48.82617 | -141.77763 | 38187 ft | 489 kts | 298° |
| 2026-05-07 10:48 | 48.86446 | -141.86294 | 38188 ft | 488 kts | 298° |
| 2026-05-07 10:49 | 48.90245 | -141.94782 | 38185 ft | 488 kts | 298° |
| 2026-05-07 10:49 | 48.94060 | -142.03336 | 38183 ft | 488 kts | 298° |
| 2026-05-07 10:50 | 48.97874 | -142.11916 | 38176 ft | 487 kts | 298° |
| 2026-05-07 10:50 | 49.01659 | -142.20449 | 38188 ft | 486 kts | 298° |
| 2026-05-07 10:51 | 49.05441 | -142.29011 | 38178 ft | 486 kts | 297° |
| 2026-05-07 10:51 | 49.09219 | -142.37592 | 38182 ft | 486 kts | 297° |
| 2026-05-07 10:52 | 49.12962 | -142.46119 | 38178 ft | 486 kts | 297° |
| 2026-05-07 10:52 | 49.16728 | -142.54722 | 38189 ft | 487 kts | 297° |
| 2026-05-07 10:53 | 49.20491 | -142.63350 | 38155 ft | 487 kts | 297° |
| 2026-05-07 10:53 | 49.24244 | -142.71985 | 38161 ft | 487 kts | 297° |
| 2026-05-07 10:54 | 49.27993 | -142.80636 | 38169 ft | 487 kts | 297° |
| 2026-05-07 10:54 | 49.31737 | -142.89299 | 38155 ft | 486 kts | 297° |
| 2026-05-07 10:55 | 49.35465 | -142.97958 | 38146 ft | 486 kts | 297° |
| 2026-05-07 10:55 | 49.39189 | -143.06636 | 38154 ft | 486 kts | 297° |
| 2026-05-07 10:56 | 49.42875 | -143.15254 | 38150 ft | 486 kts | 297° |
| 2026-05-07 10:56 | 49.46576 | -143.23930 | 38146 ft | 484 kts | 297° |
| 2026-05-07 10:57 | 49.50257 | -143.32593 | 38142 ft | 483 kts | 296° |
| 2026-05-07 10:57 | 49.53932 | -143.41269 | 38141 ft | 483 kts | 296° |
| 2026-05-07 10:58 | 49.57601 | -143.49963 | 38148 ft | 483 kts | 296° |
| 2026-05-07 10:58 | 49.61258 | -143.58652 | 38136 ft | 482 kts | 296° |
| 2026-05-07 10:59 | 49.64907 | -143.67352 | 38125 ft | 482 kts | 296° |
| 2026-05-07 10:59 | 49.68550 | -143.76066 | 38124 ft | 482 kts | 296° |
| 2026-05-07 11:00 | 49.72157 | -143.84723 | 38149 ft | 482 kts | 296° |
| 2026-05-07 11:00 | 49.75779 | -143.93443 | 38125 ft | 481 kts | 296° |
| 2026-05-07 11:01 | 49.79391 | -144.02168 | 38118 ft | 481 kts | 296° |
| 2026-05-07 11:01 | 49.82997 | -144.10908 | 38110 ft | 481 kts | 296° |
| 2026-05-07 11:02 | 49.86595 | -144.19656 | 38134 ft | 481 kts | 296° |
| 2026-05-07 11:02 | 49.90180 | -144.28399 | 38104 ft | 479 kts | 296° |
| 2026-05-07 11:03 | 49.93747 | -144.37132 | 38095 ft | 478 kts | 296° |
| 2026-05-07 11:03 | 49.97308 | -144.45879 | 38092 ft | 478 kts | 296° |
| 2026-05-07 11:04 | 50.00861 | -144.54635 | 38108 ft | 478 kts | 296° |
| 2026-05-07 11:04 | 50.04404 | -144.63391 | 38082 ft | 477 kts | 295° |
| 2026-05-07 11:05 | 50.07934 | -144.72148 | 38080 ft | 477 kts | 295° |
| 2026-05-07 11:05 | 50.11454 | -144.80912 | 38074 ft | 477 kts | 295° |
| 2026-05-07 11:06 | 50.14969 | -144.89690 | 38092 ft | 477 kts | 295° |
| 2026-05-07 11:06 | 50.18457 | -144.98425 | 38066 ft | 477 kts | 295° |
| 2026-05-07 11:07 | 50.21958 | -145.07229 | 38065 ft | 477 kts | 295° |
| 2026-05-07 11:07 | 50.25454 | -145.16052 | 38065 ft | 477 kts | 295° |
| 2026-05-07 11:08 | 50.28942 | -145.24881 | 38054 ft | 477 kts | 295° |
| 2026-05-07 11:08 | 50.32419 | -145.33713 | 38048 ft | 476 kts | 295° |
| 2026-05-07 11:09 | 50.35895 | -145.42571 | 38048 ft | 477 kts | 295° |
| 2026-05-07 11:09 | 50.39365 | -145.51442 | 38048 ft | 476 kts | 295° |
| 2026-05-07 11:10 | 50.42245 | -145.58831 | 38049 ft | 476 kts | 295° |
| 2026-05-07 11:10 | 50.45701 | -145.67717 | 38045 ft | 477 kts | 294° |
| 2026-05-07 11:11 | 50.49150 | -145.76623 | 38036 ft | 477 kts | 294° |
| 2026-05-07 11:11 | 50.52592 | -145.85544 | 38034 ft | 477 kts | 294° |
| 2026-05-07 11:12 | 50.56005 | -145.94419 | 38027 ft | 477 kts | 294° |
| 2026-05-07 11:12 | 50.59436 | -146.03366 | 38039 ft | 476 kts | 294° |
| 2026-05-07 11:13 | 50.62851 | -146.12304 | 38025 ft | 476 kts | 294° |
| 2026-05-07 11:13 | 50.66259 | -146.21258 | 38008 ft | 476 kts | 294° |
| 2026-05-07 11:14 | 50.69658 | -146.30218 | 38008 ft | 476 kts | 294° |
| 2026-05-07 11:14 | 50.73051 | -146.39193 | 38006 ft | 475 kts | 294° |
| 2026-05-07 11:15 | 50.76428 | -146.48155 | 38005 ft | 474 kts | 294° |
| 2026-05-07 11:15 | 50.79799 | -146.57135 | 38003 ft | 474 kts | 293° |
| 2026-05-07 11:16 | 50.83161 | -146.66123 | 37995 ft | 474 kts | 293° |
| 2026-05-07 11:16 | 50.86494 | -146.75059 | 38017 ft | 474 kts | 293° |
| 2026-05-07 11:17 | 50.89841 | -146.84070 | 37991 ft | 474 kts | 293° |
| 2026-05-07 11:17 | 50.93180 | -146.93088 | 37988 ft | 474 kts | 293° |
| 2026-05-07 11:18 | 50.96508 | -147.02110 | 37982 ft | 474 kts | 293° |
| 2026-05-07 11:18 | 50.99831 | -147.11149 | 38004 ft | 474 kts | 293° |
| 2026-05-07 11:19 | 51.03145 | -147.20188 | 37987 ft | 472 kts | 292° |
| 2026-05-07 11:19 | 51.06441 | -147.29217 | 37992 ft | 471 kts | 292° |
| 2026-05-07 11:20 | 51.09724 | -147.38247 | 37982 ft | 471 kts | 292° |
| 2026-05-07 11:20 | 51.12999 | -147.47282 | 37978 ft | 471 kts | 292° |
| 2026-05-07 11:21 | 51.16270 | -147.56340 | 37974 ft | 471 kts | 292° |
| 2026-05-07 11:21 | 51.19530 | -147.65396 | 37975 ft | 470 kts | 292° |
| 2026-05-07 11:22 | 51.22781 | -147.74465 | 37975 ft | 470 kts | 292° |
| 2026-05-07 11:22 | 51.26028 | -147.83549 | 37974 ft | 470 kts | 292° |
| 2026-05-07 11:23 | 51.29267 | -147.92642 | 37984 ft | 471 kts | 292° |
| 2026-05-07 11:23 | 51.32502 | -148.01763 | 37978 ft | 471 kts | 292° |
| 2026-05-07 11:24 | 51.35735 | -148.10906 | 37975 ft | 471 kts | 292° |
| 2026-05-07 11:24 | 51.38961 | -148.20067 | 37978 ft | 471 kts | 292° |
| 2026-05-07 11:25 | 51.42180 | -148.29238 | 37994 ft | 473 kts | 291° |
| 2026-05-07 11:25 | 51.45400 | -148.38449 | 37985 ft | 473 kts | 291° |
| 2026-05-07 11:26 | 51.48614 | -148.47675 | 37981 ft | 473 kts | 291° |
| 2026-05-07 11:26 | 51.51821 | -148.56911 | 37985 ft | 473 kts | 291° |
| 2026-05-07 11:27 | 51.55019 | -148.66159 | 38008 ft | 473 kts | 291° |
| 2026-05-07 11:27 | 51.58197 | -148.75383 | 37991 ft | 474 kts | 291° |
| 2026-05-07 11:28 | 51.61390 | -148.84683 | 37992 ft | 474 kts | 291° |
| 2026-05-07 11:28 | 51.64574 | -148.93991 | 37988 ft | 474 kts | 291° |
| 2026-05-07 11:29 | 51.67748 | -149.03306 | 37997 ft | 474 kts | 291° |
| 2026-05-07 11:29 | 51.70918 | -149.12642 | 37998 ft | 474 kts | 291° |
| 2026-05-07 11:30 | 51.74077 | -149.21978 | 38000 ft | 474 kts | 291° |
| 2026-05-07 11:30 | 51.77228 | -149.31330 | 38002 ft | 474 kts | 291° |
| 2026-05-07 11:31 | 51.80370 | -149.40690 | 38010 ft | 474 kts | 291° |
| 2026-05-07 11:31 | 51.83508 | -149.50079 | 38023 ft | 474 kts | 291° |
| 2026-05-07 11:32 | 51.88198 | -149.64164 | 38016 ft | 473 kts | 291° |
| 2026-05-07 11:33 | 51.91295 | -149.73507 | 38015 ft | 473 kts | 291° |
| 2026-05-07 11:33 | 51.94404 | -149.82927 | 38021 ft | 473 kts | 291° |
| 2026-05-07 11:34 | 51.97499 | -149.92358 | 38035 ft | 473 kts | 291° |
| 2026-05-07 11:34 | 52.00445 | -150.01854 | 38029 ft | 468 kts | 287° |
| 2026-05-07 11:35 | 52.02953 | -150.11607 | 38028 ft | 467 kts | 285° |
| 2026-05-07 11:35 | 52.05406 | -150.21414 | 38029 ft | 466 kts | 285° |
| 2026-05-07 11:36 | 52.07839 | -150.31197 | 38044 ft | 466 kts | 286° |
| 2026-05-07 11:36 | 52.10273 | -150.40983 | 38041 ft | 466 kts | 286° |
| 2026-05-07 11:37 | 52.12685 | -150.50708 | 38039 ft | 466 kts | 286° |
| 2026-05-07 11:37 | 52.15104 | -150.60508 | 38037 ft | 466 kts | 286° |
| 2026-05-07 11:38 | 52.17529 | -150.70379 | 38080 ft | 466 kts | 286° |
| 2026-05-07 11:38 | 52.19911 | -150.80137 | 38054 ft | 466 kts | 286° |
| 2026-05-07 11:39 | 52.22306 | -150.89968 | 38057 ft | 466 kts | 286° |
| 2026-05-07 11:39 | 52.24692 | -150.99808 | 38052 ft | 465 kts | 286° |
| 2026-05-07 11:40 | 52.27065 | -151.09643 | 38047 ft | 465 kts | 286° |
| 2026-05-07 11:40 | 52.29431 | -151.19510 | 38058 ft | 467 kts | 286° |
| 2026-05-07 11:41 | 52.31800 | -151.29418 | 38050 ft | 467 kts | 286° |
| 2026-05-07 11:41 | 52.34160 | -151.39329 | 38050 ft | 467 kts | 286° |
| 2026-05-07 11:42 | 52.36513 | -151.49258 | 38052 ft | 467 kts | 286° |
| 2026-05-07 11:42 | 52.38855 | -151.59190 | 38082 ft | 467 kts | 286° |
| 2026-05-07 11:43 | 52.41191 | -151.69157 | 38056 ft | 468 kts | 286° |
| 2026-05-07 11:43 | 52.43526 | -151.79146 | 38054 ft | 469 kts | 286° |
| 2026-05-07 11:44 | 52.45851 | -151.89142 | 38056 ft | 468 kts | 286° |
| 2026-05-07 11:44 | 52.48169 | -151.99153 | 38057 ft | 468 kts | 285° |
| 2026-05-07 11:45 | 52.50457 | -152.09101 | 38072 ft | 470 kts | 286° |
| 2026-05-07 11:45 | 52.52763 | -152.19159 | 38062 ft | 470 kts | 286° |
| 2026-05-07 11:46 | 52.55061 | -152.29222 | 38061 ft | 470 kts | 286° |
| 2026-05-07 11:46 | 52.57350 | -152.39297 | 38060 ft | 470 kts | 285° |
| 2026-05-07 11:47 | 52.59627 | -152.49375 | 38087 ft | 470 kts | 286° |
| 2026-05-07 11:47 | 52.61899 | -152.59493 | 38063 ft | 471 kts | 286° |
| 2026-05-07 11:48 | 52.64170 | -152.69626 | 38059 ft | 471 kts | 286° |
| 2026-05-07 11:48 | 52.66430 | -152.79766 | 38064 ft | 471 kts | 286° |
| 2026-05-07 11:49 | 52.68681 | -152.89918 | 38064 ft | 471 kts | 285° |
| 2026-05-07 11:49 | 52.70918 | -153.00081 | 38076 ft | 472 kts | 286° |
| 2026-05-07 11:50 | 52.73146 | -153.10225 | 38069 ft | 473 kts | 286° |
| 2026-05-07 11:50 | 52.75381 | -153.20447 | 38067 ft | 472 kts | 286° |
| 2026-05-07 11:51 | 52.77605 | -153.30676 | 38070 ft | 472 kts | 286° |
| 2026-05-07 11:51 | 52.79819 | -153.40912 | 38070 ft | 472 kts | 285° |
| 2026-05-07 11:52 | 52.82021 | -153.51149 | 38070 ft | 472 kts | 285° |
| 2026-05-07 11:52 | 52.84217 | -153.61407 | 38070 ft | 472 kts | 285° |
| 2026-05-07 11:53 | 52.86403 | -153.71666 | 38070 ft | 472 kts | 285° |
| 2026-05-07 11:53 | 52.88580 | -153.81937 | 38070 ft | 472 kts | 285° |
| 2026-05-07 11:54 | 52.90744 | -153.92222 | 38072 ft | 473 kts | 285° |
| 2026-05-07 11:54 | 52.92906 | -154.02520 | 38068 ft | 473 kts | 285° |
| 2026-05-07 11:55 | 52.95062 | -154.12839 | 38075 ft | 473 kts | 285° |
| 2026-05-07 11:55 | 52.97194 | -154.23104 | 38074 ft | 473 kts | 285° |
| 2026-05-07 11:56 | 52.99329 | -154.33438 | 38099 ft | 473 kts | 285° |
| 2026-05-07 11:56 | 53.01455 | -154.43797 | 38081 ft | 473 kts | 285° |
| 2026-05-07 11:57 | 53.03573 | -154.54151 | 38078 ft | 472 kts | 285° |
| 2026-05-07 11:57 | 53.05683 | -154.64517 | 38073 ft | 472 kts | 285° |
| 2026-05-07 11:58 | 53.07425 | -154.73125 | 38073 ft | 472 kts | 285° |
| 2026-05-07 11:58 | 53.09513 | -154.83497 | 38083 ft | 473 kts | 285° |
| 2026-05-07 11:59 | 53.11596 | -154.93899 | 38077 ft | 473 kts | 285° |
| 2026-05-07 11:59 | 53.13670 | -155.04297 | 38078 ft | 473 kts | 285° |
| 2026-05-07 12:00 | 53.15736 | -155.14715 | 38077 ft | 473 kts | 285° |
| 2026-05-07 12:00 | 53.17793 | -155.25147 | 38080 ft | 472 kts | 285° |
| 2026-05-07 12:01 | 53.19835 | -155.35572 | 38087 ft | 472 kts | 285° |
| 2026-05-07 12:01 | 53.21870 | -155.46008 | 38079 ft | 473 kts | 285° |
| 2026-05-07 12:02 | 53.23900 | -155.56467 | 38078 ft | 472 kts | 285° |
| 2026-05-07 12:02 | 53.25918 | -155.66922 | 38078 ft | 472 kts | 285° |
| 2026-05-07 12:03 | 53.27925 | -155.77389 | 38070 ft | 472 kts | 285° |
| 2026-05-07 12:03 | 53.29908 | -155.87779 | 38081 ft | 472 kts | 285° |
| 2026-05-07 12:04 | 53.31897 | -155.98254 | 38082 ft | 472 kts | 285° |
| 2026-05-07 12:04 | 53.33872 | -156.08719 | 38081 ft | 472 kts | 285° |
| 2026-05-07 12:05 | 53.35841 | -156.19207 | 38077 ft | 472 kts | 285° |
| 2026-05-07 12:05 | 53.37799 | -156.29715 | 38082 ft | 472 kts | 285° |
| 2026-05-07 12:06 | 53.39751 | -156.40227 | 38080 ft | 471 kts | 285° |
| 2026-05-07 12:06 | 53.41691 | -156.50735 | 38085 ft | 471 kts | 285° |
| 2026-05-07 12:07 | 53.43622 | -156.61259 | 38088 ft | 471 kts | 285° |
| 2026-05-07 12:07 | 53.45542 | -156.71789 | 38085 ft | 471 kts | 285° |
| 2026-05-07 12:08 | 53.47454 | -156.82337 | 38085 ft | 471 kts | 285° |
| 2026-05-07 12:08 | 53.49345 | -156.92816 | 38081 ft | 471 kts | 285° |
| 2026-05-07 12:09 | 53.51237 | -157.03360 | 38076 ft | 471 kts | 285° |
| 2026-05-07 12:09 | 53.53120 | -157.13925 | 38077 ft | 471 kts | 285° |
| 2026-05-07 12:10 | 53.54993 | -157.24499 | 38088 ft | 471 kts | 285° |
| 2026-05-07 12:10 | 53.56857 | -157.35079 | 38086 ft | 471 kts | 285° |
| 2026-05-07 12:11 | 53.58712 | -157.45661 | 38081 ft | 471 kts | 285° |
| 2026-05-07 12:11 | 53.60558 | -157.56261 | 38085 ft | 471 kts | 285° |
| 2026-05-07 12:12 | 53.62392 | -157.66861 | 38087 ft | 471 kts | 285° |
| 2026-05-07 12:12 | 53.64217 | -157.77474 | 38083 ft | 470 kts | 285° |
| 2026-05-07 12:13 | 53.66029 | -157.88074 | 38080 ft | 470 kts | 285° |
| 2026-05-07 12:13 | 53.67836 | -157.98699 | 38082 ft | 471 kts | 285° |
| 2026-05-07 12:14 | 53.69633 | -158.09322 | 38084 ft | 470 kts | 284° |
| 2026-05-07 12:14 | 53.71417 | -158.19950 | 38084 ft | 470 kts | 285° |
| 2026-05-07 12:15 | 53.73194 | -158.30597 | 38082 ft | 470 kts | 284° |
| 2026-05-07 12:15 | 53.74949 | -158.41165 | 38082 ft | 469 kts | 284° |
| 2026-05-07 12:16 | 53.76699 | -158.51794 | 38082 ft | 469 kts | 284° |
| 2026-05-07 12:16 | 53.78445 | -158.62460 | 38084 ft | 470 kts | 284° |
| 2026-05-07 12:17 | 53.80182 | -158.73128 | 38082 ft | 469 kts | 284° |
| 2026-05-07 12:17 | 53.81905 | -158.83779 | 38080 ft | 470 kts | 284° |
| 2026-05-07 12:18 | 53.83625 | -158.94470 | 38075 ft | 470 kts | 284° |
| 2026-05-07 12:18 | 53.85334 | -159.05169 | 38080 ft | 470 kts | 284° |
| 2026-05-07 12:19 | 53.87036 | -159.15881 | 38081 ft | 469 kts | 284° |
| 2026-05-07 12:19 | 53.88720 | -159.26568 | 38079 ft | 468 kts | 284° |
| 2026-05-07 12:20 | 53.90399 | -159.37287 | 38085 ft | 470 kts | 284° |
| 2026-05-07 12:20 | 53.92067 | -159.47993 | 38080 ft | 469 kts | 284° |
| 2026-05-07 12:21 | 53.93724 | -159.58695 | 38081 ft | 467 kts | 284° |
| 2026-05-07 12:21 | 53.95352 | -159.69319 | 38080 ft | 468 kts | 284° |
| 2026-05-07 12:22 | 53.96988 | -159.80032 | 38085 ft | 469 kts | 284° |
| 2026-05-07 12:22 | 53.98622 | -159.90807 | 38075 ft | 470 kts | 283° |
| 2026-05-07 12:23 | 53.99900 | -160.01726 | 38075 ft | 471 kts | 278° |
| 2026-05-07 12:23 | 54.00537 | -160.12816 | 38074 ft | 469 kts | 274° |
| 2026-05-07 12:24 | 54.00975 | -160.23941 | 38070 ft | 471 kts | 274° |
| 2026-05-07 12:24 | 54.01407 | -160.35096 | 38073 ft | 472 kts | 274° |
| 2026-05-07 12:25 | 54.01830 | -160.46228 | 38073 ft | 471 kts | 274° |
| 2026-05-07 12:25 | 54.02247 | -160.57372 | 38074 ft | 472 kts | 274° |
| 2026-05-07 12:26 | 54.02649 | -160.68455 | 38077 ft | 471 kts | 274° |
| 2026-05-07 12:26 | 54.03039 | -160.79592 | 38073 ft | 471 kts | 274° |
| 2026-05-07 12:27 | 54.03427 | -160.90733 | 38076 ft | 472 kts | 274° |
| 2026-05-07 12:27 | 54.03799 | -161.01871 | 38070 ft | 470 kts | 274° |
| 2026-05-07 12:28 | 54.04165 | -161.13004 | 38066 ft | 471 kts | 274° |
| 2026-05-07 12:28 | 54.04519 | -161.24157 | 38066 ft | 471 kts | 274° |
| 2026-05-07 12:29 | 54.04855 | -161.35223 | 38070 ft | 469 kts | 274° |
| 2026-05-07 12:29 | 54.05191 | -161.46339 | 38070 ft | 471 kts | 274° |
| 2026-05-07 12:30 | 54.05512 | -161.57490 | 38070 ft | 470 kts | 274° |
| 2026-05-07 12:30 | 54.05824 | -161.68624 | 38065 ft | 470 kts | 274° |
| 2026-05-07 12:31 | 54.06127 | -161.79769 | 38063 ft | 470 kts | 274° |
| 2026-05-07 12:31 | 54.06416 | -161.90891 | 38061 ft | 469 kts | 274° |
| 2026-05-07 12:32 | 54.06697 | -162.02002 | 38068 ft | 469 kts | 273° |
| 2026-05-07 12:32 | 54.06967 | -162.13137 | 38064 ft | 469 kts | 273° |
| 2026-05-07 12:33 | 54.07355 | -162.29818 | 38063 ft | 470 kts | 273° |
| 2026-05-07 12:33 | 54.07598 | -162.40940 | 38064 ft | 469 kts | 273° |
| 2026-05-07 12:34 | 54.07832 | -162.52056 | 38059 ft | 469 kts | 273° |
| 2026-05-07 12:34 | 54.08056 | -162.63165 | 38059 ft | 469 kts | 273° |
| 2026-05-07 12:35 | 54.08269 | -162.74272 | 38058 ft | 469 kts | 272° |
| 2026-05-07 12:35 | 54.08471 | -162.85317 | 38059 ft | 469 kts | 272° |
| 2026-05-07 12:36 | 54.08663 | -162.96423 | 38058 ft | 467 kts | 272° |
| 2026-05-07 12:36 | 54.08846 | -163.07497 | 38056 ft | 467 kts | 272° |
| 2026-05-07 12:37 | 54.09018 | -163.18594 | 38056 ft | 467 kts | 272° |
| 2026-05-07 12:37 | 54.09180 | -163.29673 | 38044 ft | 467 kts | 272° |
| 2026-05-07 12:38 | 54.09331 | -163.40771 | 38046 ft | 467 kts | 272° |
| 2026-05-07 12:38 | 54.09472 | -163.51847 | 38044 ft | 467 kts | 272° |
| 2026-05-07 12:39 | 54.09606 | -163.62931 | 38050 ft | 468 kts | 272° |
| 2026-05-07 12:39 | 54.09725 | -163.74014 | 38047 ft | 466 kts | 272° |
| 2026-05-07 12:40 | 54.09838 | -163.85108 | 38052 ft | 468 kts | 272° |
| 2026-05-07 12:40 | 54.09935 | -163.96142 | 38045 ft | 467 kts | 272° |
| 2026-05-07 12:41 | 54.10027 | -164.07193 | 38039 ft | 467 kts | 271° |
| 2026-05-07 12:41 | 54.10105 | -164.18289 | 38043 ft | 466 kts | 272° |
| 2026-05-07 12:42 | 54.10178 | -164.29341 | 38040 ft | 466 kts | 272° |
| 2026-05-07 12:42 | 54.10240 | -164.40409 | 38043 ft | 466 kts | 272° |
| 2026-05-07 12:43 | 54.10291 | -164.51458 | 38041 ft | 466 kts | 271° |
| 2026-05-07 12:43 | 54.10332 | -164.62548 | 38041 ft | 467 kts | 271° |
| 2026-05-07 12:44 | 54.10359 | -164.73613 | 38042 ft | 466 kts | 271° |
| 2026-05-07 12:44 | 54.10378 | -164.84696 | 38031 ft | 467 kts | 271° |
| 2026-05-07 12:45 | 54.10385 | -164.95700 | 38029 ft | 466 kts | 271° |
| 2026-05-07 12:45 | 54.10385 | -165.06778 | 38022 ft | 467 kts | 271° |
| 2026-05-07 12:46 | 54.10374 | -165.17846 | 38029 ft | 467 kts | 271° |
| 2026-05-07 12:46 | 54.10355 | -165.28939 | 38011 ft | 467 kts | 270° |
| 2026-05-07 12:47 | 54.10325 | -165.40070 | 38025 ft | 470 kts | 270° |
| 2026-05-07 12:47 | 54.10292 | -165.49344 | 38023 ft | 471 kts | 270° |
| 2026-05-07 12:48 | 54.10239 | -165.60506 | 38019 ft | 470 kts | 270° |
| 2026-05-07 12:48 | 54.10179 | -165.71672 | 38007 ft | 471 kts | 270° |
| 2026-05-07 12:49 | 54.10106 | -165.82856 | 38017 ft | 471 kts | 270° |
| 2026-05-07 12:49 | 54.10026 | -165.94039 | 38010 ft | 471 kts | 270° |
| 2026-05-07 12:50 | 54.09933 | -166.05217 | 38013 ft | 471 kts | 270° |
| 2026-05-07 12:50 | 54.09832 | -166.16403 | 38010 ft | 472 kts | 270° |
| 2026-05-07 12:51 | 54.09718 | -166.27744 | 38030 ft | 473 kts | 270° |
| 2026-05-07 12:51 | 54.09593 | -166.38961 | 38037 ft | 473 kts | 270° |
| 2026-05-07 12:52 | 54.09461 | -166.50175 | 38035 ft | 473 kts | 269° |
| 2026-05-07 12:52 | 54.09314 | -166.61391 | 38032 ft | 475 kts | 269° |
| 2026-05-07 12:53 | 54.09159 | -166.72763 | 38034 ft | 482 kts | 269° |
| 2026-05-07 12:53 | 54.08989 | -166.84192 | 38016 ft | 487 kts | 269° |
| 2026-05-07 12:54 | 54.08804 | -166.95807 | 37983 ft | 492 kts | 269° |
| 2026-05-07 12:54 | 54.08606 | -167.07511 | 37975 ft | 495 kts | 269° |
| 2026-05-07 12:55 | 54.08397 | -167.19277 | 37976 ft | 496 kts | 269° |
| 2026-05-07 12:55 | 54.08182 | -167.31054 | 37963 ft | 497 kts | 269° |
| 2026-05-07 12:56 | 54.07950 | -167.42886 | 37960 ft | 500 kts | 268° |
| 2026-05-07 12:56 | 54.07704 | -167.54748 | 37959 ft | 501 kts | 268° |
| 2026-05-07 12:57 | 54.07446 | -167.66630 | 37958 ft | 501 kts | 268° |
| 2026-05-07 12:57 | 54.07176 | -167.78517 | 37957 ft | 502 kts | 268° |
| 2026-05-07 12:58 | 54.06899 | -167.90410 | 37956 ft | 503 kts | 268° |
| 2026-05-07 12:58 | 54.06604 | -168.02331 | 37958 ft | 504 kts | 267° |
| 2026-05-07 12:59 | 54.06298 | -168.14253 | 37943 ft | 504 kts | 267° |
| 2026-05-07 12:59 | 54.05983 | -168.26113 | 37947 ft | 503 kts | 267° |
| 2026-05-07 13:00 | 54.05655 | -168.38078 | 37953 ft | 504 kts | 267° |
| 2026-05-07 13:00 | 54.05314 | -168.50018 | 37953 ft | 505 kts | 266° |
| 2026-05-07 13:01 | 54.04959 | -168.61963 | 37948 ft | 504 kts | 266° |
| 2026-05-07 13:01 | 54.04594 | -168.73916 | 37948 ft | 505 kts | 266° |
| 2026-05-07 13:02 | 54.04217 | -168.85850 | 37941 ft | 504 kts | 266° |
| 2026-05-07 13:02 | 54.03828 | -168.97778 | 37933 ft | 503 kts | 266° |
| 2026-05-07 13:03 | 54.03430 | -169.09698 | 37939 ft | 505 kts | 266° |
| 2026-05-07 13:03 | 54.03018 | -169.21623 | 37937 ft | 505 kts | 266° |
| 2026-05-07 13:04 | 54.02593 | -169.33561 | 37936 ft | 504 kts | 266° |
| 2026-05-07 13:04 | 54.02162 | -169.45519 | 37936 ft | 507 kts | 265° |
| 2026-05-07 13:05 | 54.01712 | -169.57438 | 37934 ft | 509 kts | 265° |
| 2026-05-07 13:05 | 54.01248 | -169.69460 | 37929 ft | 508 kts | 265° |
| 2026-05-07 13:06 | 54.00772 | -169.81499 | 37924 ft | 509 kts | 265° |
| 2026-05-07 13:06 | 54.00284 | -169.93539 | 37926 ft | 510 kts | 265° |
| 2026-05-07 13:07 | 54.00237 | -170.05590 | 37922 ft | 510 kts | 272° |
| 2026-05-07 13:07 | 54.00705 | -170.17673 | 37921 ft | 511 kts | 273° |
| 2026-05-07 13:08 | 54.01198 | -170.29727 | 37919 ft | 509 kts | 273° |
| 2026-05-07 13:08 | 54.01674 | -170.41771 | 37918 ft | 511 kts | 272° |
| 2026-05-07 13:09 | 54.02129 | -170.53854 | 37922 ft | 510 kts | 272° |
| 2026-05-07 13:09 | 54.02571 | -170.65910 | 37921 ft | 510 kts | 272° |
| 2026-05-07 13:10 | 54.03002 | -170.77998 | 37920 ft | 511 kts | 272° |
| 2026-05-07 13:10 | 54.03417 | -170.90073 | 37914 ft | 509 kts | 272° |
| 2026-05-07 13:11 | 54.03822 | -171.02129 | 37926 ft | 511 kts | 272° |
| 2026-05-07 13:11 | 54.04214 | -171.14214 | 37920 ft | 510 kts | 272° |
| 2026-05-07 13:12 | 54.04593 | -171.26291 | 37915 ft | 510 kts | 271° |
| 2026-05-07 13:12 | 54.04962 | -171.38384 | 37912 ft | 511 kts | 271° |
| 2026-05-07 13:13 | 54.05315 | -171.50388 | 37910 ft | 510 kts | 271° |
| 2026-05-07 13:13 | 54.05664 | -171.62491 | 37916 ft | 511 kts | 271° |
| 2026-05-07 13:14 | 54.05994 | -171.74587 | 37903 ft | 510 kts | 271° |
| 2026-05-07 13:14 | 54.06316 | -171.86683 | 37903 ft | 511 kts | 271° |
| 2026-05-07 13:15 | 54.06624 | -171.98784 | 37907 ft | 510 kts | 271° |
| 2026-05-07 13:15 | 54.06921 | -172.10864 | 37910 ft | 511 kts | 270° |
| 2026-05-07 13:16 | 54.07206 | -172.22982 | 37902 ft | 511 kts | 270° |
| 2026-05-07 13:16 | 54.07477 | -172.35089 | 37901 ft | 511 kts | 270° |
| 2026-05-07 13:17 | 54.07738 | -172.47220 | 37901 ft | 511 kts | 270° |
| 2026-05-07 13:17 | 54.07987 | -172.59360 | 37897 ft | 511 kts | 270° |
| 2026-05-07 13:18 | 54.08225 | -172.71506 | 37902 ft | 513 kts | 270° |
| 2026-05-07 13:18 | 54.08447 | -172.83588 | 37898 ft | 513 kts | 270° |
| 2026-05-07 13:19 | 54.08660 | -172.95827 | 37897 ft | 513 kts | 270° |
| 2026-05-07 13:19 | 54.08858 | -173.07899 | 37894 ft | 512 kts | 270° |
| 2026-05-07 13:20 | 54.09048 | -173.20079 | 37901 ft | 514 kts | 269° |
| 2026-05-07 13:20 | 54.09223 | -173.32266 | 37895 ft | 514 kts | 269° |
| 2026-05-07 13:21 | 54.09386 | -173.44463 | 37898 ft | 514 kts | 269° |
| 2026-05-07 13:21 | 54.09537 | -173.56662 | 37893 ft | 514 kts | 269° |
| 2026-05-07 13:22 | 54.09677 | -173.68872 | 37902 ft | 515 kts | 269° |
| 2026-05-07 13:22 | 54.09804 | -173.81092 | 37890 ft | 515 kts | 269° |
| 2026-05-07 13:23 | 54.09918 | -173.93320 | 37887 ft | 515 kts | 269° |
| 2026-05-07 13:23 | 54.10020 | -174.05542 | 37886 ft | 515 kts | 269° |
| 2026-05-07 13:24 | 54.10109 | -174.17790 | 37886 ft | 517 kts | 269° |
| 2026-05-07 13:24 | 54.10187 | -174.30061 | 37879 ft | 517 kts | 268° |
| 2026-05-07 13:25 | 54.10252 | -174.42322 | 37878 ft | 517 kts | 268° |
| 2026-05-07 13:25 | 54.10305 | -174.54594 | 37880 ft | 517 kts | 268° |
| 2026-05-07 13:26 | 54.10344 | -174.66792 | 37877 ft | 517 kts | 268° |
| 2026-05-07 13:26 | 54.10373 | -174.79075 | 37883 ft | 518 kts | 268° |
| 2026-05-07 13:27 | 54.10388 | -174.91363 | 37881 ft | 518 kts | 268° |
| 2026-05-07 13:27 | 54.10390 | -175.03653 | 37878 ft | 518 kts | 268° |
| 2026-05-07 13:28 | 54.10380 | -175.15960 | 37880 ft | 518 kts | 268° |
| 2026-05-07 13:28 | 54.10358 | -175.28256 | 37885 ft | 518 kts | 267° |
| 2026-05-07 13:29 | 54.10324 | -175.40574 | 37877 ft | 519 kts | 267° |
| 2026-05-07 13:29 | 54.10275 | -175.52898 | 37878 ft | 519 kts | 267° |
| 2026-05-07 13:30 | 54.10215 | -175.65221 | 37875 ft | 519 kts | 267° |
| 2026-05-07 13:30 | 54.10142 | -175.77563 | 37892 ft | 519 kts | 267° |
| 2026-05-07 13:31 | 54.10058 | -175.89805 | 37881 ft | 520 kts | 266° |
| 2026-05-07 13:31 | 54.09959 | -176.02139 | 37879 ft | 520 kts | 266° |
| 2026-05-07 13:32 | 54.09848 | -176.14479 | 37878 ft | 520 kts | 266° |
| 2026-05-07 13:32 | 54.09725 | -176.26818 | 37876 ft | 520 kts | 266° |
| 2026-05-07 13:33 | 54.09590 | -176.39166 | 37880 ft | 520 kts | 266° |
| 2026-05-07 13:33 | 54.09441 | -176.51493 | 37868 ft | 520 kts | 266° |
| 2026-05-07 13:34 | 54.09223 | -176.67911 | 37865 ft | 519 kts | 266° |
| 2026-05-07 13:35 | 54.09045 | -176.80232 | 37865 ft | 519 kts | 266° |
| 2026-05-07 13:35 | 54.08855 | -176.92550 | 37867 ft | 519 kts | 265° |
| 2026-05-07 13:36 | 54.08653 | -177.04853 | 37864 ft | 519 kts | 265° |
| 2026-05-07 13:36 | 54.08437 | -177.17157 | 37864 ft | 519 kts | 265° |
| 2026-05-07 13:37 | 54.08210 | -177.29452 | 37865 ft | 519 kts | 265° |
| 2026-05-07 13:37 | 54.07969 | -177.41760 | 37873 ft | 518 kts | 265° |
| 2026-05-07 13:38 | 54.07716 | -177.54043 | 37871 ft | 518 kts | 265° |
| 2026-05-07 13:38 | 54.07452 | -177.66316 | 37866 ft | 518 kts | 265° |
| 2026-05-07 13:39 | 54.07174 | -177.78596 | 37861 ft | 518 kts | 265° |
| 2026-05-07 13:39 | 54.06884 | -177.90864 | 37879 ft | 518 kts | 265° |
| 2026-05-07 13:40 | 54.06582 | -178.03117 | 37868 ft | 517 kts | 265° |
| 2026-05-07 13:40 | 54.06267 | -178.15373 | 37866 ft | 517 kts | 265° |
| 2026-05-07 13:41 | 54.05943 | -178.27550 | 37865 ft | 517 kts | 264° |
| 2026-05-07 13:41 | 54.05603 | -178.39807 | 37863 ft | 517 kts | 264° |
| 2026-05-07 13:42 | 54.05249 | -178.52076 | 37869 ft | 518 kts | 264° |
| 2026-05-07 13:42 | 54.04885 | -178.64331 | 37862 ft | 518 kts | 264° |
| 2026-05-07 13:43 | 54.04509 | -178.76588 | 37865 ft | 518 kts | 264° |
| 2026-05-07 13:43 | 54.04119 | -178.88857 | 37868 ft | 518 kts | 264° |
| 2026-05-07 13:44 | 54.03719 | -179.01015 | 37864 ft | 518 kts | 264° |
| 2026-05-07 13:44 | 54.03305 | -179.13259 | 37858 ft | 518 kts | 264° |
| 2026-05-07 13:45 | 54.02879 | -179.25522 | 37871 ft | 518 kts | 264° |
| 2026-05-07 13:45 | 54.02440 | -179.37760 | 37860 ft | 518 kts | 264° |
| 2026-05-07 13:46 | 54.01988 | -179.50001 | 37855 ft | 518 kts | 264° |
| 2026-05-07 13:46 | 54.01524 | -179.62229 | 37868 ft | 518 kts | 264° |
| 2026-05-07 13:47 | 54.01047 | -179.74460 | 37867 ft | 518 kts | 264° |
| 2026-05-07 13:47 | 54.00557 | -179.86693 | 37858 ft | 518 kts | 263° |
| 2026-05-07 13:48 | 54.00093 | -179.98924 | 37869 ft | 518 kts | 265° |
| 2026-05-07 13:48 | 54.00046 | 179.93789 | 37858 ft | 519 kts | 268° |
| 2026-05-07 13:49 | 54.00106 | 179.85936 | 37864 ft | 519 kts | 269° |
| 2026-05-07 13:49 | 54.00217 | 179.73657 | 37859 ft | 519 kts | 269° |
| 2026-05-07 13:50 | 54.00310 | 179.61366 | 37860 ft | 519 kts | 268° |
| 2026-05-07 13:50 | 54.00384 | 179.49074 | 37857 ft | 519 kts | 268° |
| 2026-05-07 13:51 | 54.00442 | 179.36884 | 37861 ft | 517 kts | 268° |
| 2026-05-07 13:51 | 54.00488 | 179.24632 | 37857 ft | 517 kts | 268° |
| 2026-05-07 13:52 | 54.00522 | 179.12386 | 37851 ft | 517 kts | 268° |
| 2026-05-07 13:52 | 54.00543 | 179.00139 | 37851 ft | 517 kts | 268° |
| 2026-05-07 13:53 | 54.00551 | 178.87891 | 37856 ft | 517 kts | 268° |
| 2026-05-07 13:53 | 54.00547 | 178.75645 | 37851 ft | 516 kts | 268° |
| 2026-05-07 13:54 | 54.00531 | 178.63510 | 37848 ft | 516 kts | 268° |
| 2026-05-07 13:54 | 54.00502 | 178.51273 | 37852 ft | 516 kts | 268° |
| 2026-05-07 13:55 | 54.00461 | 178.39050 | 37855 ft | 516 kts | 267° |
| 2026-05-07 13:55 | 54.00408 | 178.26826 | 37847 ft | 516 kts | 267° |
| 2026-05-07 13:56 | 54.00342 | 178.14608 | 37846 ft | 516 kts | 267° |
| 2026-05-07 13:56 | 54.00263 | 178.02398 | 37851 ft | 516 kts | 267° |
| 2026-05-07 13:57 | 54.00173 | 177.90175 | 37849 ft | 516 kts | 267° |
| 2026-05-07 13:57 | 54.00068 | 177.77982 | 37852 ft | 514 kts | 267° |
| 2026-05-07 13:58 | 53.99954 | 177.65802 | 37849 ft | 514 kts | 267° |
| 2026-05-07 13:58 | 53.99828 | 177.53701 | 37848 ft | 514 kts | 267° |
| 2026-05-07 13:59 | 53.99689 | 177.41525 | 37848 ft | 514 kts | 266° |
| 2026-05-07 13:59 | 53.99536 | 177.29364 | 37854 ft | 513 kts | 267° |
| 2026-05-07 14:00 | 53.99373 | 177.17223 | 37849 ft | 513 kts | 266° |
| 2026-05-07 14:00 | 53.99198 | 177.05094 | 37848 ft | 513 kts | 266° |
| 2026-05-07 14:01 | 53.99009 | 176.92960 | 37849 ft | 513 kts | 266° |
| 2026-05-07 14:01 | 53.98808 | 176.80834 | 37856 ft | 512 kts | 266° |
| 2026-05-07 14:02 | 53.98596 | 176.68726 | 37848 ft | 511 kts | 266° |
| 2026-05-07 14:02 | 53.98373 | 176.56641 | 37844 ft | 511 kts | 266° |
| 2026-05-07 14:03 | 53.98139 | 176.44650 | 37844 ft | 511 kts | 266° |
| 2026-05-07 14:03 | 53.97890 | 176.32493 | 37842 ft | 511 kts | 266° |
| 2026-05-07 14:04 | 53.97630 | 176.20510 | 37839 ft | 509 kts | 266° |
| 2026-05-07 14:04 | 53.97360 | 176.08487 | 37844 ft | 509 kts | 266° |
| 2026-05-07 14:05 | 53.97077 | 175.96449 | 37843 ft | 509 kts | 266° |
| 2026-05-07 14:05 | 53.96783 | 175.84433 | 37839 ft | 509 kts | 266° |
| 2026-05-07 14:06 | 53.96474 | 175.72409 | 37843 ft | 508 kts | 266° |
| 2026-05-07 14:06 | 53.96157 | 175.60423 | 37832 ft | 507 kts | 266° |
| 2026-05-07 14:07 | 53.95827 | 175.48442 | 37836 ft | 507 kts | 266° |
| 2026-05-07 14:07 | 53.95485 | 175.36455 | 37828 ft | 507 kts | 265° |
| 2026-05-07 14:08 | 53.95131 | 175.24472 | 37826 ft | 507 kts | 265° |
| 2026-05-07 14:08 | 53.94768 | 175.12582 | 37826 ft | 507 kts | 265° |
| 2026-05-07 14:09 | 53.94388 | 175.00522 | 37831 ft | 507 kts | 265° |
| 2026-05-07 14:09 | 53.94002 | 174.88649 | 37831 ft | 507 kts | 265° |
| 2026-05-07 14:10 | 53.93601 | 174.76681 | 37827 ft | 507 kts | 265° |
| 2026-05-07 14:10 | 53.93186 | 174.64717 | 37829 ft | 506 kts | 265° |
| 2026-05-07 14:11 | 53.92763 | 174.52776 | 37828 ft | 506 kts | 265° |
| 2026-05-07 14:11 | 53.92327 | 174.40829 | 37825 ft | 506 kts | 265° |
| 2026-05-07 14:12 | 53.91878 | 174.28883 | 37814 ft | 506 kts | 265° |
| 2026-05-07 14:12 | 53.91418 | 174.16959 | 37827 ft | 505 kts | 265° |
| 2026-05-07 14:13 | 53.90948 | 174.05066 | 37818 ft | 504 kts | 265° |
| 2026-05-07 14:13 | 53.90467 | 173.93177 | 37815 ft | 504 kts | 265° |
| 2026-05-07 14:14 | 53.89973 | 173.81287 | 37816 ft | 504 kts | 265° |
| 2026-05-07 14:14 | 53.89468 | 173.69402 | 37824 ft | 504 kts | 264° |
| 2026-05-07 14:15 | 53.88955 | 173.57619 | 37813 ft | 503 kts | 264° |
| 2026-05-07 14:15 | 53.88428 | 173.45777 | 37811 ft | 503 kts | 264° |
| 2026-05-07 14:16 | 53.87889 | 173.33935 | 37812 ft | 503 kts | 264° |
| 2026-05-07 14:16 | 53.87339 | 173.22099 | 37810 ft | 503 kts | 264° |
| 2026-05-07 14:17 | 53.86776 | 173.10267 | 37813 ft | 502 kts | 264° |
| 2026-05-07 14:17 | 53.86204 | 172.98460 | 37809 ft | 502 kts | 264° |
| 2026-05-07 14:18 | 53.85620 | 172.86659 | 37801 ft | 502 kts | 264° |
| 2026-05-07 14:18 | 53.85025 | 172.74851 | 37802 ft | 502 kts | 264° |
| 2026-05-07 14:19 | 53.84417 | 172.63056 | 37810 ft | 501 kts | 264° |
| 2026-05-07 14:19 | 53.83800 | 172.51312 | 37803 ft | 499 kts | 264° |
| 2026-05-07 14:20 | 53.83174 | 172.39583 | 37796 ft | 499 kts | 264° |
| 2026-05-07 14:20 | 53.82535 | 172.27853 | 37795 ft | 499 kts | 264° |
| 2026-05-07 14:21 | 53.81886 | 172.16137 | 37793 ft | 499 kts | 264° |
| 2026-05-07 14:21 | 53.81223 | 172.04427 | 37795 ft | 498 kts | 264° |
| 2026-05-07 14:22 | 53.80557 | 171.92816 | 37796 ft | 498 kts | 264° |
| 2026-05-07 14:22 | 53.79875 | 171.81131 | 37793 ft | 498 kts | 263° |
| 2026-05-07 14:23 | 53.79182 | 171.69458 | 37791 ft | 498 kts | 263° |
| 2026-05-07 14:23 | 53.78597 | 171.59763 | 37798 ft | 497 kts | 263° |
| 2026-05-07 14:24 | 53.77884 | 171.48128 | 37795 ft | 496 kts | 263° |
| 2026-05-07 14:24 | 53.77162 | 171.36511 | 37794 ft | 496 kts | 263° |
| 2026-05-07 14:25 | 53.76429 | 171.24904 | 37790 ft | 496 kts | 263° |
| 2026-05-07 14:25 | 53.75684 | 171.13290 | 37788 ft | 496 kts | 263° |
| 2026-05-07 14:26 | 53.74927 | 171.01717 | 37791 ft | 493 kts | 263° |
| 2026-05-07 14:26 | 53.74165 | 170.90183 | 37788 ft | 493 kts | 263° |
| 2026-05-07 14:27 | 53.73392 | 170.78651 | 37782 ft | 493 kts | 263° |
| 2026-05-07 14:27 | 53.72608 | 170.67136 | 37785 ft | 493 kts | 263° |
| 2026-05-07 14:28 | 53.71817 | 170.55701 | 37794 ft | 492 kts | 263° |
| 2026-05-07 14:28 | 53.71013 | 170.44224 | 37789 ft | 490 kts | 263° |
| 2026-05-07 14:29 | 53.70200 | 170.32788 | 37783 ft | 490 kts | 263° |
| 2026-05-07 14:29 | 53.69375 | 170.21334 | 37782 ft | 490 kts | 263° |
| 2026-05-07 14:30 | 53.68540 | 170.09899 | 37782 ft | 490 kts | 263° |
| 2026-05-07 14:30 | 53.67694 | 169.98467 | 37782 ft | 490 kts | 262° |
| 2026-05-07 14:31 | 53.66837 | 169.87047 | 37783 ft | 490 kts | 262° |
| 2026-05-07 14:31 | 53.65969 | 169.75626 | 37782 ft | 490 kts | 262° |
| 2026-05-07 14:32 | 53.65090 | 169.64212 | 37780 ft | 490 kts | 262° |
| 2026-05-07 14:32 | 53.64185 | 169.52812 | 37781 ft | 489 kts | 261° |
| 2026-05-07 14:33 | 53.62811 | 169.41589 | 37775 ft | 488 kts | 255° |
| 2026-05-07 14:33 | 53.60781 | 169.30727 | 37774 ft | 488 kts | 250° |
| 2026-05-07 14:34 | 53.58095 | 169.20210 | 37777 ft | 489 kts | 244° |
| 2026-05-07 14:34 | 53.54904 | 169.10099 | 37775 ft | 489 kts | 242° |
| 2026-05-07 14:35 | 53.51670 | 169.00016 | 37779 ft | 489 kts | 242° |
| 2026-05-07 14:35 | 53.48435 | 168.89966 | 37773 ft | 488 kts | 242° |
| 2026-05-07 14:36 | 53.45193 | 168.79941 | 37776 ft | 488 kts | 242° |
| 2026-05-07 14:36 | 53.41936 | 168.69916 | 37770 ft | 488 kts | 242° |
| 2026-05-07 14:37 | 53.38693 | 168.59976 | 37772 ft | 488 kts | 242° |
| 2026-05-07 14:37 | 53.33784 | 168.45008 | 37771 ft | 488 kts | 242° |
| 2026-05-07 14:38 | 53.30503 | 168.35057 | 37768 ft | 488 kts | 242° |
| 2026-05-07 14:38 | 53.27199 | 168.25116 | 37767 ft | 488 kts | 242° |
| 2026-05-07 14:39 | 53.23884 | 168.15204 | 37763 ft | 488 kts | 242° |
| 2026-05-07 14:39 | 53.20564 | 168.05317 | 37761 ft | 487 kts | 242° |
| 2026-05-07 14:40 | 53.17267 | 167.95533 | 37762 ft | 487 kts | 242° |
| 2026-05-07 14:40 | 53.13938 | 167.85696 | 37757 ft | 487 kts | 241° |
| 2026-05-07 14:41 | 53.10599 | 167.75872 | 37753 ft | 486 kts | 242° |
| 2026-05-07 14:41 | 53.07264 | 167.66096 | 37754 ft | 485 kts | 242° |
| 2026-05-07 14:42 | 53.03928 | 167.56352 | 37756 ft | 484 kts | 242° |
| 2026-05-07 14:42 | 53.00586 | 167.46627 | 37752 ft | 484 kts | 241° |
| 2026-05-07 14:43 | 52.97238 | 167.36926 | 37755 ft | 484 kts | 241° |
| 2026-05-07 14:43 | 52.93884 | 167.27245 | 37753 ft | 484 kts | 241° |
| 2026-05-07 14:44 | 52.90519 | 167.17575 | 37752 ft | 483 kts | 241° |
| 2026-05-07 14:44 | 52.87160 | 167.07951 | 37750 ft | 482 kts | 241° |
| 2026-05-07 14:45 | 52.83788 | 166.98331 | 37749 ft | 482 kts | 241° |
| 2026-05-07 14:45 | 52.80431 | 166.88789 | 37752 ft | 482 kts | 241° |
| 2026-05-07 14:46 | 52.77046 | 166.79205 | 37752 ft | 482 kts | 241° |
| 2026-05-07 14:46 | 52.73659 | 166.69668 | 37740 ft | 478 kts | 241° |
| 2026-05-07 14:47 | 52.70295 | 166.60211 | 37747 ft | 477 kts | 241° |
| 2026-05-07 14:47 | 52.66922 | 166.50767 | 37754 ft | 477 kts | 241° |
| 2026-05-07 14:48 | 52.63543 | 166.41343 | 37750 ft | 477 kts | 241° |
| 2026-05-07 14:48 | 52.60154 | 166.31931 | 37749 ft | 476 kts | 241° |
| 2026-05-07 14:49 | 52.56765 | 166.22554 | 37753 ft | 476 kts | 241° |
| 2026-05-07 14:49 | 52.53370 | 166.13192 | 37759 ft | 476 kts | 241° |
| 2026-05-07 14:50 | 52.49972 | 166.03856 | 37757 ft | 476 kts | 241° |
| 2026-05-07 14:50 | 52.46587 | 165.94590 | 37758 ft | 476 kts | 241° |
| 2026-05-07 14:51 | 52.43174 | 165.85292 | 37749 ft | 474 kts | 241° |
| 2026-05-07 14:51 | 52.39763 | 165.76021 | 37754 ft | 474 kts | 241° |
| 2026-05-07 14:52 | 52.36354 | 165.66797 | 37752 ft | 472 kts | 241° |
| 2026-05-07 14:52 | 52.32945 | 165.57599 | 37760 ft | 472 kts | 241° |
| 2026-05-07 14:53 | 52.29534 | 165.48429 | 37760 ft | 472 kts | 241° |
| 2026-05-07 14:53 | 52.26116 | 165.39276 | 37761 ft | 472 kts | 241° |
| 2026-05-07 14:54 | 52.22689 | 165.30132 | 37763 ft | 472 kts | 241° |
| 2026-05-07 14:54 | 52.19255 | 165.21002 | 37767 ft | 472 kts | 241° |
| 2026-05-07 14:55 | 52.15814 | 165.11886 | 37767 ft | 472 kts | 240° |
| 2026-05-07 14:55 | 52.12371 | 165.02804 | 37764 ft | 470 kts | 241° |
| 2026-05-07 14:56 | 52.08932 | 164.93758 | 37769 ft | 469 kts | 240° |
| 2026-05-07 14:56 | 52.05489 | 164.84731 | 37768 ft | 469 kts | 240° |
| 2026-05-07 14:57 | 52.02037 | 164.75716 | 37770 ft | 469 kts | 240° |
| 2026-05-07 14:57 | 51.98582 | 164.66731 | 37761 ft | 467 kts | 240° |
| 2026-05-07 14:58 | 51.95163 | 164.57866 | 37773 ft | 466 kts | 240° |
| 2026-05-07 14:58 | 51.91720 | 164.48964 | 37779 ft | 465 kts | 240° |
| 2026-05-07 14:59 | 51.88271 | 164.40080 | 37778 ft | 465 kts | 240° |
| 2026-05-07 14:59 | 51.84815 | 164.31211 | 37780 ft | 465 kts | 240° |
| 2026-05-07 15:00 | 51.81350 | 164.22353 | 37771 ft | 466 kts | 240° |
| 2026-05-07 15:00 | 51.77879 | 164.13507 | 37784 ft | 466 kts | 240° |
| 2026-05-07 15:01 | 51.74404 | 164.04678 | 37782 ft | 466 kts | 240° |
| 2026-05-07 15:01 | 51.70915 | 163.95847 | 37782 ft | 466 kts | 240° |
| 2026-05-07 15:02 | 51.67421 | 163.87034 | 37783 ft | 466 kts | 240° |
| 2026-05-07 15:02 | 51.63921 | 163.78238 | 37782 ft | 466 kts | 240° |
| 2026-05-07 15:03 | 51.60432 | 163.69521 | 37874 ft | 460 kts | 240° |
| 2026-05-07 15:03 | 51.56953 | 163.60857 | 38069 ft | 460 kts | 240° |
| 2026-05-07 15:04 | 51.55218 | 163.56540 | 38195 ft | 460 kts | 240° |
| 2026-05-07 15:04 | 51.53479 | 163.52219 | 38301 ft | 459 kts | 240° |
| 2026-05-07 15:04 | 51.50024 | 163.43640 | 38481 ft | 460 kts | 240° |
| 2026-05-07 15:05 | 51.46545 | 163.35016 | 38633 ft | 460 kts | 240° |
| 2026-05-07 15:05 | 51.43060 | 163.26391 | 38763 ft | 461 kts | 240° |
| 2026-05-07 15:06 | 51.39571 | 163.17768 | 38902 ft | 461 kts | 240° |
| 2026-05-07 15:06 | 51.36077 | 163.09148 | 39022 ft | 462 kts | 240° |
| 2026-05-07 15:07 | 51.32572 | 163.00512 | 39131 ft | 462 kts | 240° |
| 2026-05-07 15:07 | 51.29062 | 162.91883 | 39237 ft | 463 kts | 240° |
| 2026-05-07 15:08 | 51.25544 | 162.83246 | 39318 ft | 463 kts | 240° |
| 2026-05-07 15:08 | 51.22027 | 162.74629 | 39442 ft | 463 kts | 240° |
| 2026-05-07 15:09 | 51.18531 | 162.66080 | 39556 ft | 463 kts | 240° |
| 2026-05-07 15:09 | 51.15013 | 162.57490 | 39659 ft | 462 kts | 240° |
| 2026-05-07 15:10 | 51.11496 | 162.48919 | 39784 ft | 461 kts | 240° |
| 2026-05-07 15:10 | 51.07983 | 162.40373 | 39891 ft | 461 kts | 240° |
| 2026-05-07 15:11 | 51.04469 | 162.31838 | 39984 ft | 461 kts | 240° |
| 2026-05-07 15:11 | 51.00954 | 162.23315 | 40092 ft | 460 kts | 240° |
| 2026-05-07 15:12 | 50.97443 | 162.14816 | 40183 ft | 460 kts | 240° |
| 2026-05-07 15:12 | 50.93933 | 162.06332 | 40272 ft | 459 kts | 240° |
| 2026-05-07 15:13 | 50.90991 | 161.99234 | 40349 ft | 459 kts | 240° |
| 2026-05-07 15:13 | 50.87482 | 161.90778 | 40443 ft | 459 kts | 240° |
| 2026-05-07 15:14 | 50.83973 | 161.82342 | 40507 ft | 457 kts | 240° |
| 2026-05-07 15:14 | 50.80496 | 161.73999 | 40620 ft | 456 kts | 240° |
| 2026-05-07 15:15 | 50.77001 | 161.65629 | 40734 ft | 455 kts | 240° |
| 2026-05-07 15:15 | 50.73517 | 161.57301 | 40822 ft | 454 kts | 240° |
| 2026-05-07 15:16 | 50.70030 | 161.48979 | 40911 ft | 453 kts | 240° |
| 2026-05-07 15:16 | 50.66549 | 161.40688 | 40985 ft | 453 kts | 240° |
| 2026-05-07 15:17 | 50.63067 | 161.32406 | 41053 ft | 453 kts | 240° |
| 2026-05-07 15:17 | 50.59584 | 161.24134 | 41112 ft | 453 kts | 240° |
| 2026-05-07 15:18 | 50.56101 | 161.15876 | 41170 ft | 452 kts | 240° |
| 2026-05-07 15:18 | 50.52618 | 161.07629 | 41228 ft | 452 kts | 240° |
| 2026-05-07 15:19 | 50.49159 | 160.99457 | 41315 ft | 451 kts | 240° |
| 2026-05-07 15:19 | 50.45678 | 160.91247 | 41379 ft | 450 kts | 240° |
| 2026-05-07 15:20 | 50.42208 | 160.83081 | 41459 ft | 449 kts | 240° |
| 2026-05-07 15:20 | 50.38744 | 160.74946 | 41548 ft | 447 kts | 240° |
| 2026-05-07 15:21 | 50.35285 | 160.66839 | 41627 ft | 446 kts | 240° |
| 2026-05-07 15:21 | 50.31835 | 160.58768 | 41704 ft | 445 kts | 240° |
| 2026-05-07 15:22 | 50.28389 | 160.50718 | 41777 ft | 444 kts | 240° |
| 2026-05-07 15:22 | 50.24949 | 160.42699 | 41838 ft | 443 kts | 240° |
| 2026-05-07 15:23 | 50.21510 | 160.34696 | 41888 ft | 443 kts | 240° |
| 2026-05-07 15:23 | 50.18095 | 160.26762 | 41942 ft | 442 kts | 240° |
| 2026-05-07 15:24 | 50.14660 | 160.18794 | 42009 ft | 441 kts | 240° |
| 2026-05-07 15:24 | 50.11231 | 160.10852 | 42057 ft | 441 kts | 240° |
| 2026-05-07 15:25 | 50.07804 | 160.02928 | 42106 ft | 441 kts | 240° |
| 2026-05-07 15:25 | 50.04377 | 159.95020 | 42137 ft | 439 kts | 240° |
| 2026-05-07 15:26 | 50.00960 | 159.87155 | 42243 ft | 437 kts | 240° |
| 2026-05-07 15:26 | 49.97557 | 159.79337 | 42327 ft | 436 kts | 240° |
| 2026-05-07 15:27 | 49.94160 | 159.71546 | 42391 ft | 435 kts | 240° |
| 2026-05-07 15:27 | 49.90763 | 159.63771 | 42434 ft | 434 kts | 240° |
| 2026-05-07 15:28 | 49.87375 | 159.56026 | 42490 ft | 433 kts | 240° |
| 2026-05-07 15:28 | 49.83985 | 159.48291 | 42527 ft | 433 kts | 240° |
| 2026-05-07 15:29 | 49.80617 | 159.40618 | 42562 ft | 433 kts | 240° |
| 2026-05-07 15:29 | 49.77233 | 159.32919 | 42590 ft | 432 kts | 240° |
| 2026-05-07 15:30 | 49.73848 | 159.25232 | 42597 ft | 432 kts | 240° |
| 2026-05-07 15:30 | 49.70464 | 159.17558 | 42642 ft | 431 kts | 240° |
| 2026-05-07 15:31 | 49.67079 | 159.09896 | 42673 ft | 431 kts | 240° |
| 2026-05-07 15:31 | 49.63699 | 159.02257 | 42700 ft | 430 kts | 240° |
| 2026-05-07 15:32 | 49.60324 | 158.94641 | 42723 ft | 430 kts | 240° |
| 2026-05-07 15:32 | 49.56947 | 158.87034 | 42743 ft | 429 kts | 240° |
| 2026-05-07 15:33 | 49.53568 | 158.79436 | 42757 ft | 429 kts | 240° |
| 2026-05-07 15:33 | 49.50197 | 158.71868 | 42776 ft | 428 kts | 240° |
| 2026-05-07 15:34 | 49.46824 | 158.64307 | 42795 ft | 428 kts | 240° |
| 2026-05-07 15:34 | 49.43458 | 158.56774 | 42809 ft | 427 kts | 240° |
| 2026-05-07 15:35 | 49.40087 | 158.49244 | 42818 ft | 427 kts | 240° |
| 2026-05-07 15:35 | 49.36722 | 158.41741 | 42839 ft | 426 kts | 240° |
| 2026-05-07 15:36 | 49.33385 | 158.34310 | 42848 ft | 425 kts | 240° |
| 2026-05-07 15:36 | 49.30022 | 158.26837 | 42880 ft | 424 kts | 240° |
| 2026-05-07 15:37 | 49.26668 | 158.19394 | 42890 ft | 424 kts | 240° |
| 2026-05-07 15:37 | 49.23315 | 158.11973 | 42883 ft | 422 kts | 240° |
| 2026-05-07 15:38 | 49.19972 | 158.04592 | 42960 ft | 420 kts | 240° |
| 2026-05-07 15:38 | 49.16642 | 157.97255 | 43005 ft | 419 kts | 240° |
| 2026-05-07 15:39 | 49.13318 | 157.89946 | 43032 ft | 418 kts | 240° |
| 2026-05-07 15:39 | 49.10000 | 157.82664 | 43057 ft | 417 kts | 240° |
| 2026-05-07 15:40 | 49.06689 | 157.75409 | 43057 ft | 416 kts | 240° |
| 2026-05-07 15:40 | 49.03401 | 157.68219 | 43060 ft | 415 kts | 240° |
| 2026-05-07 15:41 | 49.00098 | 157.61008 | 43064 ft | 414 kts | 240° |
| 2026-05-07 15:41 | 48.96797 | 157.53813 | 43062 ft | 414 kts | 240° |
| 2026-05-07 15:42 | 48.93500 | 157.46642 | 43055 ft | 412 kts | 240° |
| 2026-05-07 15:42 | 48.90210 | 157.39502 | 43093 ft | 411 kts | 240° |
| 2026-05-07 15:43 | 48.86923 | 157.32380 | 43106 ft | 410 kts | 240° |
| 2026-05-07 15:43 | 48.83648 | 157.25300 | 43113 ft | 409 kts | 240° |
| 2026-05-07 15:44 | 48.80373 | 157.18233 | 43078 ft | 408 kts | 240° |
| 2026-05-07 15:44 | 48.77113 | 157.11217 | 43126 ft | 405 kts | 240° |
| 2026-05-07 15:45 | 48.73866 | 157.04249 | 43200 ft | 403 kts | 240° |
| 2026-05-07 15:45 | 48.70636 | 156.97333 | 43227 ft | 401 kts | 240° |
| 2026-05-07 15:46 | 48.65806 | 156.87022 | 43250 ft | 399 kts | 240° |
| 2026-05-07 15:47 | 48.62596 | 156.80186 | 43236 ft | 397 kts | 240° |
| 2026-05-07 15:47 | 48.59394 | 156.73385 | 43274 ft | 395 kts | 240° |
| 2026-05-07 15:48 | 48.56227 | 156.66671 | 43292 ft | 394 kts | 240° |
| 2026-05-07 15:48 | 48.53048 | 156.59949 | 43288 ft | 392 kts | 240° |
| 2026-05-07 15:49 | 48.49875 | 156.53252 | 43283 ft | 391 kts | 240° |
| 2026-05-07 15:49 | 48.46712 | 156.46590 | 43259 ft | 390 kts | 240° |
| 2026-05-07 15:50 | 48.43560 | 156.39965 | 43305 ft | 388 kts | 240° |
| 2026-05-07 15:50 | 48.40421 | 156.33381 | 43305 ft | 386 kts | 240° |
| 2026-05-07 15:51 | 48.37285 | 156.26820 | 43272 ft | 384 kts | 240° |
| 2026-05-07 15:51 | 48.34165 | 156.20312 | 43300 ft | 382 kts | 240° |
| 2026-05-07 15:52 | 48.31060 | 156.13852 | 43318 ft | 380 kts | 240° |
| 2026-05-07 15:52 | 48.27973 | 156.07442 | 43360 ft | 377 kts | 240° |
| 2026-05-07 15:53 | 48.24899 | 156.01075 | 43366 ft | 375 kts | 240° |
| 2026-05-07 15:53 | 48.21838 | 155.94751 | 43340 ft | 374 kts | 240° |
| 2026-05-07 15:54 | 48.18784 | 155.88456 | 43325 ft | 372 kts | 240° |
| 2026-05-07 15:54 | 48.15738 | 155.82189 | 43290 ft | 371 kts | 240° |
| 2026-05-07 15:55 | 48.12722 | 155.75996 | 43293 ft | 369 kts | 239° |
| 2026-05-07 15:55 | 48.09697 | 155.69799 | 43291 ft | 368 kts | 239° |
| 2026-05-07 15:56 | 48.06679 | 155.63630 | 43259 ft | 366 kts | 239° |
| 2026-05-07 15:56 | 48.03671 | 155.57494 | 43256 ft | 365 kts | 239° |
| 2026-05-07 15:57 | 48.00671 | 155.51386 | 43208 ft | 364 kts | 239° |
| 2026-05-07 15:57 | 47.97676 | 155.45300 | 43177 ft | 362 kts | 239° |
| 2026-05-07 15:58 | 47.94694 | 155.39254 | 43133 ft | 361 kts | 240° |
| 2026-05-07 15:58 | 47.91719 | 155.33240 | 43126 ft | 359 kts | 240° |
| 2026-05-07 15:59 | 47.88751 | 155.27252 | 43107 ft | 358 kts | 240° |
| 2026-05-07 15:59 | 47.85812 | 155.21335 | 43087 ft | 357 kts | 240° |
| 2026-05-07 16:00 | 47.82855 | 155.15393 | 43044 ft | 356 kts | 239° |
| 2026-05-07 16:00 | 47.79909 | 155.09483 | 43020 ft | 355 kts | 239° |
| 2026-05-07 16:01 | 47.77463 | 155.04587 | 43008 ft | 354 kts | 239° |
| 2026-05-07 16:01 | 47.74528 | 154.98720 | 42971 ft | 353 kts | 239° |
| 2026-05-07 16:02 | 47.71597 | 154.92872 | 42949 ft | 352 kts | 239° |
| 2026-05-07 16:02 | 47.68665 | 154.87034 | 42924 ft | 352 kts | 239° |
| 2026-05-07 16:03 | 47.65741 | 154.81221 | 42889 ft | 351 kts | 239° |
| 2026-05-07 16:03 | 47.62823 | 154.75430 | 42858 ft | 350 kts | 239° |
| 2026-05-07 16:04 | 47.59907 | 154.69652 | 42842 ft | 349 kts | 239° |
| 2026-05-07 16:04 | 47.56995 | 154.63893 | 42824 ft | 348 kts | 239° |
| 2026-05-07 16:05 | 47.54088 | 154.58155 | 42804 ft | 348 kts | 239° |
| 2026-05-07 16:05 | 47.51183 | 154.52433 | 42746 ft | 347 kts | 240° |
| 2026-05-07 16:06 | 47.48283 | 154.46736 | 42747 ft | 346 kts | 240° |
| 2026-05-07 16:06 | 47.45393 | 154.41071 | 42739 ft | 345 kts | 240° |
| 2026-05-07 16:07 | 47.42522 | 154.35453 | 42729 ft | 344 kts | 240° |
| 2026-05-07 16:07 | 47.39637 | 154.29816 | 42713 ft | 343 kts | 240° |
| 2026-05-07 16:08 | 47.36753 | 154.24194 | 42692 ft | 342 kts | 240° |
| 2026-05-07 16:08 | 47.33876 | 154.18594 | 42678 ft | 342 kts | 239° |
| 2026-05-07 16:09 | 47.31022 | 154.13048 | 42667 ft | 341 kts | 239° |
| 2026-05-07 16:09 | 47.28155 | 154.07487 | 42656 ft | 340 kts | 239° |
| 2026-05-07 16:10 | 47.25287 | 154.01934 | 42639 ft | 339 kts | 239° |
| 2026-05-07 16:10 | 47.22430 | 153.96411 | 42615 ft | 339 kts | 239° |
| 2026-05-07 16:11 | 47.19569 | 153.90891 | 42593 ft | 338 kts | 239° |
| 2026-05-07 16:11 | 47.16737 | 153.85435 | 42581 ft | 337 kts | 239° |
| 2026-05-07 16:12 | 47.13884 | 153.79947 | 42567 ft | 337 kts | 239° |
| 2026-05-07 16:12 | 47.11030 | 153.74467 | 42538 ft | 337 kts | 239° |
| 2026-05-07 16:13 | 47.08178 | 153.68996 | 42466 ft | 337 kts | 240° |
| 2026-05-07 16:13 | 47.05325 | 153.63534 | 42447 ft | 337 kts | 240° |
| 2026-05-07 16:14 | 47.02492 | 153.58117 | 42442 ft | 336 kts | 239° |
| 2026-05-07 16:14 | 46.99644 | 153.52679 | 42441 ft | 336 kts | 239° |
| 2026-05-07 16:15 | 46.96799 | 153.47256 | 42439 ft | 335 kts | 239° |
| 2026-05-07 16:15 | 46.93957 | 153.41847 | 42437 ft | 335 kts | 239° |
| 2026-05-07 16:16 | 46.91115 | 153.36447 | 42436 ft | 334 kts | 239° |
| 2026-05-07 16:16 | 46.88276 | 153.31059 | 42411 ft | 334 kts | 239° |
| 2026-05-07 16:17 | 46.85436 | 153.25676 | 42400 ft | 334 kts | 239° |
| 2026-05-07 16:17 | 46.82595 | 153.20297 | 42394 ft | 334 kts | 239° |
| 2026-05-07 16:18 | 46.79754 | 153.14926 | 42393 ft | 333 kts | 239° |
| 2026-05-07 16:18 | 46.76915 | 153.09569 | 42391 ft | 333 kts | 239° |
| 2026-05-07 16:19 | 46.74077 | 153.04219 | 42368 ft | 333 kts | 239° |
| 2026-05-07 16:19 | 46.71240 | 152.98877 | 42350 ft | 333 kts | 239° |
| 2026-05-07 16:20 | 46.68398 | 152.93531 | 42353 ft | 333 kts | 239° |
| 2026-05-07 16:20 | 46.65563 | 152.88208 | 42322 ft | 332 kts | 239° |
| 2026-05-07 16:21 | 46.62746 | 152.82926 | 42357 ft | 331 kts | 239° |
| 2026-05-07 16:21 | 46.59919 | 152.77637 | 42371 ft | 331 kts | 239° |
| 2026-05-07 16:22 | 46.57094 | 152.72358 | 42361 ft | 330 kts | 239° |
| 2026-05-07 16:22 | 46.54271 | 152.67088 | 42361 ft | 330 kts | 239° |
| 2026-05-07 16:23 | 46.51446 | 152.61824 | 42360 ft | 330 kts | 239° |
| 2026-05-07 16:23 | 46.48621 | 152.56565 | 42359 ft | 330 kts | 239° |
| 2026-05-07 16:24 | 46.45798 | 152.51317 | 42355 ft | 330 kts | 239° |
| 2026-05-07 16:24 | 46.42974 | 152.46075 | 42354 ft | 329 kts | 239° |
| 2026-05-07 16:25 | 46.40150 | 152.40839 | 42339 ft | 329 kts | 239° |
| 2026-05-07 16:25 | 46.37325 | 152.35605 | 42342 ft | 329 kts | 239° |
| 2026-05-07 16:26 | 46.34501 | 152.30382 | 42349 ft | 329 kts | 239° |
| 2026-05-07 16:26 | 46.31676 | 152.25164 | 42350 ft | 329 kts | 239° |
| 2026-05-07 16:27 | 46.28854 | 152.19958 | 42340 ft | 329 kts | 239° |
| 2026-05-07 16:27 | 46.26025 | 152.14744 | 42319 ft | 329 kts | 238° |
| 2026-05-07 16:28 | 46.23200 | 152.09543 | 42327 ft | 329 kts | 238° |
| 2026-05-07 16:28 | 46.20372 | 152.04345 | 42305 ft | 328 kts | 238° |
| 2026-05-07 16:29 | 46.17549 | 151.99162 | 42313 ft | 328 kts | 238° |
| 2026-05-07 16:29 | 46.14722 | 151.93980 | 42309 ft | 328 kts | 238° |
| 2026-05-07 16:30 | 46.11912 | 151.88834 | 42314 ft | 328 kts | 238° |
| 2026-05-07 16:30 | 46.09084 | 151.83658 | 42308 ft | 328 kts | 238° |
| 2026-05-07 16:31 | 46.06253 | 151.78487 | 42321 ft | 328 kts | 238° |
| 2026-05-07 16:31 | 46.03422 | 151.73320 | 42306 ft | 329 kts | 238° |
| 2026-05-07 16:32 | 46.00585 | 151.68146 | 42296 ft | 329 kts | 238° |
| 2026-05-07 16:32 | 45.97748 | 151.62979 | 42300 ft | 329 kts | 238° |
| 2026-05-07 16:33 | 45.94909 | 151.57811 | 42306 ft | 329 kts | 238° |
| 2026-05-07 16:33 | 45.92066 | 151.52644 | 42308 ft | 329 kts | 238° |
| 2026-05-07 16:34 | 45.89220 | 151.47479 | 42320 ft | 329 kts | 238° |
| 2026-05-07 16:34 | 45.86379 | 151.42328 | 42346 ft | 329 kts | 238° |
| 2026-05-07 16:35 | 45.83537 | 151.37182 | 42353 ft | 329 kts | 238° |
| 2026-05-07 16:35 | 45.80692 | 151.32039 | 42359 ft | 328 kts | 238° |
| 2026-05-07 16:36 | 45.77873 | 151.26947 | 42332 ft | 328 kts | 238° |
| 2026-05-07 16:36 | 45.75030 | 151.21819 | 42308 ft | 329 kts | 238° |
| 2026-05-07 16:37 | 45.72175 | 151.16670 | 42276 ft | 330 kts | 238° |
| 2026-05-07 16:37 | 45.69316 | 151.11519 | 42273 ft | 330 kts | 238° |
| 2026-05-07 16:38 | 45.66453 | 151.06366 | 42273 ft | 331 kts | 238° |
| 2026-05-07 16:38 | 45.63588 | 151.01215 | 42286 ft | 331 kts | 238° |
| 2026-05-07 16:39 | 45.60725 | 150.96072 | 42298 ft | 331 kts | 238° |
| 2026-05-07 16:39 | 45.57878 | 150.90965 | 42318 ft | 330 kts | 238° |
| 2026-05-07 16:40 | 45.54992 | 150.85795 | 42324 ft | 330 kts | 238° |
| 2026-05-07 16:40 | 45.52145 | 150.80700 | 42340 ft | 330 kts | 238° |
| 2026-05-07 16:41 | 45.49256 | 150.75538 | 42335 ft | 330 kts | 238° |
| 2026-05-07 16:41 | 45.46410 | 150.70456 | 42346 ft | 330 kts | 238° |
| 2026-05-07 16:42 | 45.43540 | 150.65341 | 42367 ft | 330 kts | 238° |
| 2026-05-07 16:42 | 45.40671 | 150.60231 | 42381 ft | 330 kts | 238° |
| 2026-05-07 16:43 | 45.37803 | 150.55130 | 42395 ft | 330 kts | 238° |
| 2026-05-07 16:43 | 45.34932 | 150.50031 | 42393 ft | 330 kts | 238° |
| 2026-05-07 16:44 | 45.32060 | 150.44935 | 42392 ft | 330 kts | 238° |
| 2026-05-07 16:44 | 45.29185 | 150.39839 | 42399 ft | 330 kts | 238° |
| 2026-05-07 16:45 | 45.26308 | 150.34746 | 42411 ft | 330 kts | 238° |
| 2026-05-07 16:45 | 45.23434 | 150.29665 | 42422 ft | 330 kts | 238° |
| 2026-05-07 16:46 | 45.20557 | 150.24584 | 42419 ft | 330 kts | 238° |
| 2026-05-07 16:46 | 45.17679 | 150.19506 | 42399 ft | 330 kts | 237° |
| 2026-05-07 16:47 | 45.14800 | 150.14429 | 42408 ft | 330 kts | 237° |
| 2026-05-07 16:47 | 45.11934 | 150.09384 | 42411 ft | 330 kts | 237° |
| 2026-05-07 16:48 | 45.09032 | 150.04278 | 42418 ft | 330 kts | 237° |
| 2026-05-07 16:48 | 45.06633 | 150.00064 | 42428 ft | 330 kts | 237° |
| 2026-05-07 16:49 | 45.03280 | 149.94178 | 42424 ft | 330 kts | 237° |
| 2026-05-07 16:49 | 45.00394 | 149.89120 | 42436 ft | 330 kts | 237° |
| 2026-05-07 16:50 | 44.97506 | 149.84064 | 42445 ft | 330 kts | 237° |
| 2026-05-07 16:50 | 44.95086 | 149.79832 | 42455 ft | 330 kts | 237° |
| 2026-05-07 16:51 | 44.92212 | 149.74812 | 42454 ft | 330 kts | 237° |
| 2026-05-07 16:51 | 44.89320 | 149.69765 | 42442 ft | 331 kts | 237° |
| 2026-05-07 16:52 | 44.86423 | 149.64710 | 42405 ft | 331 kts | 237° |
| 2026-05-07 16:52 | 44.83529 | 149.59667 | 42421 ft | 331 kts | 237° |
| 2026-05-07 16:53 | 44.80631 | 149.54624 | 42436 ft | 330 kts | 237° |
| 2026-05-07 16:53 | 44.77733 | 149.49588 | 42465 ft | 330 kts | 237° |
| 2026-05-07 16:54 | 44.74837 | 149.44560 | 42473 ft | 330 kts | 237° |
| 2026-05-07 16:54 | 44.71941 | 149.39539 | 42483 ft | 330 kts | 237° |
| 2026-05-07 16:55 | 44.69048 | 149.34528 | 42503 ft | 330 kts | 237° |
| 2026-05-07 16:55 | 44.66170 | 149.29550 | 42487 ft | 330 kts | 237° |
| 2026-05-07 16:56 | 44.63266 | 149.24530 | 42471 ft | 331 kts | 237° |
| 2026-05-07 16:56 | 44.58906 | 149.17002 | 42478 ft | 331 kts | 237° |
| 2026-05-07 16:57 | 44.55995 | 149.11981 | 42479 ft | 331 kts | 237° |
| 2026-05-07 16:57 | 44.53087 | 149.06972 | 42491 ft | 331 kts | 236° |
| 2026-05-07 16:58 | 44.50179 | 149.01969 | 42522 ft | 331 kts | 236° |
| 2026-05-07 16:58 | 44.47271 | 148.96973 | 42534 ft | 331 kts | 236° |
| 2026-05-07 16:59 | 44.44365 | 148.91987 | 42546 ft | 330 kts | 236° |
| 2026-05-07 16:59 | 44.41457 | 148.87004 | 42530 ft | 330 kts | 236° |
| 2026-05-07 17:00 | 44.38549 | 148.82026 | 42550 ft | 330 kts | 236° |
| 2026-05-07 17:00 | 44.35641 | 148.77056 | 42549 ft | 330 kts | 236° |
| 2026-05-07 17:01 | 44.32723 | 148.72072 | 42530 ft | 331 kts | 236° |
| 2026-05-07 17:01 | 44.29822 | 148.67122 | 42528 ft | 331 kts | 236° |
| 2026-05-07 17:02 | 44.26901 | 148.62142 | 42537 ft | 331 kts | 236° |
| 2026-05-07 17:02 | 44.23978 | 148.57162 | 42564 ft | 331 kts | 236° |
| 2026-05-07 17:03 | 44.21055 | 148.52191 | 42580 ft | 331 kts | 236° |
| 2026-05-07 17:03 | 44.18135 | 148.47230 | 42597 ft | 331 kts | 236° |
| 2026-05-07 17:04 | 44.15213 | 148.42272 | 42609 ft | 331 kts | 236° |
| 2026-05-07 17:04 | 44.12291 | 148.37319 | 42623 ft | 330 kts | 236° |
| 2026-05-07 17:05 | 44.09374 | 148.32382 | 42661 ft | 330 kts | 236° |
| 2026-05-07 17:05 | 44.06457 | 148.27450 | 42642 ft | 330 kts | 236° |
| 2026-05-07 17:06 | 44.03534 | 148.22515 | 42642 ft | 330 kts | 236° |
| 2026-05-07 17:06 | 44.00611 | 148.17584 | 42646 ft | 330 kts | 236° |
| 2026-05-07 17:07 | 43.97687 | 148.12655 | 42633 ft | 330 kts | 236° |
| 2026-05-07 17:07 | 43.94763 | 148.07732 | 42643 ft | 330 kts | 236° |
| 2026-05-07 17:08 | 43.91844 | 148.02824 | 42664 ft | 329 kts | 236° |
| 2026-05-07 17:08 | 43.88928 | 147.97928 | 42674 ft | 329 kts | 236° |
| 2026-05-07 17:09 | 43.86026 | 147.93061 | 42658 ft | 330 kts | 236° |
| 2026-05-07 17:09 | 43.83099 | 147.88157 | 42646 ft | 330 kts | 235° |
| 2026-05-07 17:10 | 43.80176 | 147.83261 | 42665 ft | 329 kts | 235° |
| 2026-05-07 17:10 | 43.77251 | 147.78370 | 42682 ft | 329 kts | 235° |
| 2026-05-07 17:11 | 43.74328 | 147.73488 | 42711 ft | 329 kts | 235° |
| 2026-05-07 17:11 | 43.71405 | 147.68614 | 42722 ft | 329 kts | 235° |
| 2026-05-07 17:12 | 43.68486 | 147.63750 | 42741 ft | 328 kts | 235° |
| 2026-05-07 17:12 | 43.65569 | 147.58896 | 42750 ft | 328 kts | 235° |
| 2026-05-07 17:13 | 43.62650 | 147.54042 | 42729 ft | 329 kts | 235° |
| 2026-05-07 17:13 | 43.59725 | 147.49182 | 42727 ft | 329 kts | 235° |
| 2026-05-07 17:14 | 43.56795 | 147.44322 | 42733 ft | 329 kts | 235° |
| 2026-05-07 17:14 | 43.53866 | 147.39465 | 42728 ft | 329 kts | 234° |
| 2026-05-07 17:15 | 43.50961 | 147.34655 | 42736 ft | 328 kts | 235° |
| 2026-05-07 17:15 | 43.48040 | 147.29828 | 42781 ft | 327 kts | 235° |
| 2026-05-07 17:16 | 43.45124 | 147.25018 | 42808 ft | 326 kts | 235° |
| 2026-05-07 17:16 | 43.42212 | 147.20220 | 42834 ft | 326 kts | 235° |
| 2026-05-07 17:17 | 43.39300 | 147.15426 | 42789 ft | 327 kts | 234° |
| 2026-05-07 17:17 | 43.36381 | 147.10623 | 42795 ft | 327 kts | 234° |
| 2026-05-07 17:18 | 43.33465 | 147.05830 | 42805 ft | 327 kts | 234° |
| 2026-05-07 17:18 | 43.30544 | 147.01035 | 42827 ft | 327 kts | 234° |
| 2026-05-07 17:19 | 43.27629 | 146.96256 | 42833 ft | 326 kts | 234° |
| 2026-05-07 17:19 | 43.24710 | 146.91476 | 42838 ft | 326 kts | 234° |
| 2026-05-07 17:20 | 43.21816 | 146.86740 | 42848 ft | 326 kts | 234° |
| 2026-05-07 17:20 | 43.18902 | 146.81977 | 42867 ft | 325 kts | 234° |
| 2026-05-07 17:21 | 43.15991 | 146.77226 | 42884 ft | 325 kts | 234° |
| 2026-05-07 17:21 | 43.13078 | 146.72476 | 42872 ft | 325 kts | 234° |
| 2026-05-07 17:22 | 43.10163 | 146.67729 | 42858 ft | 326 kts | 234° |
| 2026-05-07 17:22 | 43.07245 | 146.62978 | 42848 ft | 326 kts | 234° |
| 2026-05-07 17:23 | 43.04324 | 146.58232 | 42848 ft | 325 kts | 234° |
| 2026-05-07 17:23 | 43.01406 | 146.53497 | 42878 ft | 325 kts | 234° |
| 2026-05-07 17:24 | 42.98493 | 146.48778 | 42900 ft | 325 kts | 234° |
| 2026-05-07 17:24 | 42.95578 | 146.44062 | 42907 ft | 325 kts | 234° |
| 2026-05-07 17:25 | 42.92682 | 146.39381 | 42881 ft | 325 kts | 234° |
| 2026-05-07 17:25 | 42.89762 | 146.34667 | 42881 ft | 325 kts | 234° |
| 2026-05-07 17:26 | 42.86842 | 146.29957 | 42894 ft | 325 kts | 234° |
| 2026-05-07 17:26 | 42.83921 | 146.25253 | 42917 ft | 325 kts | 234° |
| 2026-05-07 17:27 | 42.81001 | 146.20553 | 42914 ft | 324 kts | 234° |
| 2026-05-07 17:27 | 42.78082 | 146.15862 | 42928 ft | 324 kts | 234° |
| 2026-05-07 17:28 | 42.75163 | 146.11175 | 42909 ft | 324 kts | 233° |
| 2026-05-07 17:28 | 42.72238 | 146.06482 | 42907 ft | 325 kts | 233° |
| 2026-05-07 17:29 | 42.69310 | 146.01790 | 42911 ft | 325 kts | 233° |
| 2026-05-07 17:29 | 42.66383 | 145.97104 | 42875 ft | 325 kts | 233° |
| 2026-05-07 17:30 | 42.63447 | 145.92405 | 42837 ft | 326 kts | 233° |
| 2026-05-07 17:30 | 42.60501 | 145.87694 | 42765 ft | 328 kts | 233° |
| 2026-05-07 17:31 | 42.57534 | 145.82953 | 42693 ft | 330 kts | 233° |
| 2026-05-07 17:31 | 42.54551 | 145.78189 | 42619 ft | 332 kts | 233° |
| 2026-05-07 17:32 | 42.51552 | 145.73398 | 42532 ft | 334 kts | 233° |
| 2026-05-07 17:32 | 42.49042 | 145.69390 | 42482 ft | 336 kts | 233° |
| 2026-05-07 17:33 | 42.45514 | 145.63756 | 42465 ft | 338 kts | 233° |
| 2026-05-07 17:33 | 42.42470 | 145.58900 | 42459 ft | 338 kts | 233° |
| 2026-05-07 17:34 | 42.39419 | 145.54038 | 42471 ft | 339 kts | 233° |
| 2026-05-07 17:34 | 42.36362 | 145.49171 | 42481 ft | 339 kts | 233° |
| 2026-05-07 17:35 | 42.33299 | 145.44299 | 42506 ft | 339 kts | 233° |
| 2026-05-07 17:35 | 42.30240 | 145.39438 | 42533 ft | 339 kts | 233° |
| 2026-05-07 17:36 | 42.27694 | 145.35397 | 42566 ft | 339 kts | 233° |
| 2026-05-07 17:36 | 42.24133 | 145.29752 | 42591 ft | 339 kts | 233° |
| 2026-05-07 17:37 | 42.21072 | 145.24904 | 42633 ft | 339 kts | 233° |
| 2026-05-07 17:37 | 42.18015 | 145.20068 | 42664 ft | 338 kts | 233° |